﻿<?xml version="1.0" encoding="utf-8"?><gpx creator="Garmin Desktop App" version="1.1" xsi:schemaLocation="http://www.topografix.com/GPX/1/1 http://www.topografix.com/GPX/1/1/gpx.xsd http://www.garmin.com/xmlschemas/WaypointExtension/v1 http://www8.garmin.com/xmlschemas/WaypointExtensionv1.xsd http://www.garmin.com/xmlschemas/TrackPointExtension/v1 http://www.garmin.com/xmlschemas/TrackPointExtensionv1.xsd http://www.garmin.com/xmlschemas/GpxExtensions/v3 http://www8.garmin.com/xmlschemas/GpxExtensionsv3.xsd http://www.garmin.com/xmlschemas/ActivityExtension/v1 http://www8.garmin.com/xmlschemas/ActivityExtensionv1.xsd http://www.garmin.com/xmlschemas/AdventuresExtensions/v1 http://www8.garmin.com/xmlschemas/AdventuresExtensionv1.xsd http://www.garmin.com/xmlschemas/PressureExtension/v1 http://www.garmin.com/xmlschemas/PressureExtensionv1.xsd http://www.garmin.com/xmlschemas/TripExtensions/v1 http://www.garmin.com/xmlschemas/TripExtensionsv1.xsd http://www.garmin.com/xmlschemas/TripMetaDataExtensions/v1 http://www.garmin.com/xmlschemas/TripMetaDataExtensionsv1.xsd http://www.garmin.com/xmlschemas/ViaPointTransportationModeExtensions/v1 http://www.garmin.com/xmlschemas/ViaPointTransportationModeExtensionsv1.xsd http://www.garmin.com/xmlschemas/CreationTimeExtension/v1 http://www.garmin.com/xmlschemas/CreationTimeExtensionsv1.xsd http://www.garmin.com/xmlschemas/AccelerationExtension/v1 http://www.garmin.com/xmlschemas/AccelerationExtensionv1.xsd http://www.garmin.com/xmlschemas/PowerExtension/v1 http://www.garmin.com/xmlschemas/PowerExtensionv1.xsd http://www.garmin.com/xmlschemas/VideoExtension/v1 http://www.garmin.com/xmlschemas/VideoExtensionv1.xsd" xmlns="http://www.topografix.com/GPX/1/1" xmlns:xsi="http://www.w3.org/2001/XMLSchema-instance" xmlns:wptx1="http://www.garmin.com/xmlschemas/WaypointExtension/v1" xmlns:gpxtrx="http://www.garmin.com/xmlschemas/GpxExtensions/v3" xmlns:gpxtpx="http://www.garmin.com/xmlschemas/TrackPointExtension/v1" xmlns:gpxx="http://www.garmin.com/xmlschemas/GpxExtensions/v3" xmlns:trp="http://www.garmin.com/xmlschemas/TripExtensions/v1" xmlns:adv="http://www.garmin.com/xmlschemas/AdventuresExtensions/v1" xmlns:prs="http://www.garmin.com/xmlschemas/PressureExtension/v1" xmlns:tmd="http://www.garmin.com/xmlschemas/TripMetaDataExtensions/v1" xmlns:vptm="http://www.garmin.com/xmlschemas/ViaPointTransportationModeExtensions/v1" xmlns:ctx="http://www.garmin.com/xmlschemas/CreationTimeExtension/v1" xmlns:gpxacc="http://www.garmin.com/xmlschemas/AccelerationExtension/v1" xmlns:gpxpx="http://www.garmin.com/xmlschemas/PowerExtension/v1" xmlns:vidx1="http://www.garmin.com/xmlschemas/VideoExtension/v1">

  <metadata>
    <link href="http://www.garmin.com">
      <text>Garmin International</text>
    </link>
    <time>2025-01-26T18:33:34Z</time>
    <bounds maxlat="45.889533162117004" maxlon="7.938049547374249" minlat="45.865286076441407" minlon="7.909929938614368" />
  </metadata>

  <trk>
    <name>rifugio Cresoi-Calderini2025-01-26</name>
    <extensions>
      <gpxx:TrackExtension>
        <gpxx:DisplayColor>Red</gpxx:DisplayColor>
      </gpxx:TrackExtension>
    </extensions>
    <trkseg>
      <trkpt lat="45.865519009530544" lon="7.936752447858453">
        <ele>1262.03</ele>
        <time>2025-01-26T07:57:54Z</time>
      </trkpt>
      <trkpt lat="45.865435358136892" lon="7.936678603291512">
        <ele>1261.0599999999999</ele>
        <time>2025-01-26T07:58:27Z</time>
      </trkpt>
      <trkpt lat="45.865471735596657" lon="7.936653876677156">
        <ele>1260.73</ele>
        <time>2025-01-26T08:00:41Z</time>
      </trkpt>
      <trkpt lat="45.865432759746909" lon="7.936728643253446">
        <ele>1260.77</ele>
        <time>2025-01-26T08:01:11Z</time>
      </trkpt>
      <trkpt lat="45.865514986217022" lon="7.936703497543931">
        <ele>1260.8800000000001</ele>
        <time>2025-01-26T08:01:52Z</time>
      </trkpt>
      <trkpt lat="45.865449020639062" lon="7.936678100377321">
        <ele>1260.0799999999999</ele>
        <time>2025-01-26T08:02:31Z</time>
      </trkpt>
      <trkpt lat="45.865386407822371" lon="7.936677765101194">
        <ele>1259.6099999999999</ele>
        <time>2025-01-26T08:02:56Z</time>
      </trkpt>
      <trkpt lat="45.865339133888483" lon="7.93659009039402">
        <ele>1259.1300000000001</ele>
        <time>2025-01-26T08:03:11Z</time>
      </trkpt>
      <trkpt lat="45.865286076441407" lon="7.93662378564477">
        <ele>1259.3900000000001</ele>
        <time>2025-01-26T08:03:26Z</time>
      </trkpt>
      <trkpt lat="45.86529303342104" lon="7.936626803129911">
        <ele>1259.0999999999999</ele>
        <time>2025-01-26T08:03:41Z</time>
      </trkpt>
      <trkpt lat="45.865389592945576" lon="7.936651194468141">
        <ele>1259.5999999999999</ele>
        <time>2025-01-26T08:03:50Z</time>
      </trkpt>
      <trkpt lat="45.865457486361265" lon="7.936700396239758">
        <ele>1260.29</ele>
        <time>2025-01-26T08:03:57Z</time>
      </trkpt>
      <trkpt lat="45.865473495796323" lon="7.936695450916886">
        <ele>1260.4000000000001</ele>
        <time>2025-01-26T08:04:11Z</time>
      </trkpt>
      <trkpt lat="45.8655178360641" lon="7.936701318249106">
        <ele>1260.05</ele>
        <time>2025-01-26T08:05:06Z</time>
      </trkpt>
      <trkpt lat="45.865505849942565" lon="7.936697043478489">
        <ele>1260.6900000000001</ele>
        <time>2025-01-26T08:06:25Z</time>
      </trkpt>
      <trkpt lat="45.865508783608675" lon="7.936742808669806">
        <ele>1260.95</ele>
        <time>2025-01-26T08:08:10Z</time>
      </trkpt>
      <trkpt lat="45.865567540749907" lon="7.936736354604363">
        <ele>1261.3499999999999</ele>
        <time>2025-01-26T08:08:30Z</time>
      </trkpt>
      <trkpt lat="45.865662507712841" lon="7.93676258996129">
        <ele>1261.97</ele>
        <time>2025-01-26T08:08:40Z</time>
      </trkpt>
      <trkpt lat="45.865744398906827" lon="7.93678262270987">
        <ele>1262.24</ele>
        <time>2025-01-26T08:08:56Z</time>
      </trkpt>
      <trkpt lat="45.865817656740546" lon="7.936808690428734">
        <ele>1262.9100000000001</ele>
        <time>2025-01-26T08:09:26Z</time>
      </trkpt>
      <trkpt lat="45.865895189344883" lon="7.936752950772643">
        <ele>1262.8299999999999</ele>
        <time>2025-01-26T08:09:38Z</time>
      </trkpt>
      <trkpt lat="45.865975404158235" lon="7.936673574149609">
        <ele>1262.8099999999999</ele>
        <time>2025-01-26T08:09:48Z</time>
      </trkpt>
      <trkpt lat="45.866061570122838" lon="7.93661842122674">
        <ele>1262.97</ele>
        <time>2025-01-26T08:09:57Z</time>
      </trkpt>
      <trkpt lat="45.866153184324503" lon="7.936597131192684">
        <ele>1263.53</ele>
        <time>2025-01-26T08:10:06Z</time>
      </trkpt>
      <trkpt lat="45.866249157115817" lon="7.936628563329577">
        <ele>1264.1600000000001</ele>
        <time>2025-01-26T08:10:15Z</time>
      </trkpt>
      <trkpt lat="45.866348147392273" lon="7.936648009344935">
        <ele>1264.8900000000001</ele>
        <time>2025-01-26T08:10:25Z</time>
      </trkpt>
      <trkpt lat="45.866428948938847" lon="7.936661168932915">
        <ele>1265.1700000000001</ele>
        <time>2025-01-26T08:10:33Z</time>
      </trkpt>
      <trkpt lat="45.866519641131163" lon="7.936680782586336">
        <ele>1265.23</ele>
        <time>2025-01-26T08:10:40Z</time>
      </trkpt>
      <trkpt lat="45.866601532325149" lon="7.9367102868855">
        <ele>1266.1700000000001</ele>
        <time>2025-01-26T08:10:48Z</time>
      </trkpt>
      <trkpt lat="45.86668367497623" lon="7.936746245250106">
        <ele>1266.5699999999999</ele>
        <time>2025-01-26T08:10:57Z</time>
      </trkpt>
      <trkpt lat="45.866777217015624" lon="7.936751944944263">
        <ele>1267.53</ele>
        <time>2025-01-26T08:11:11Z</time>
      </trkpt>
      <trkpt lat="45.866762045770884" lon="7.936763344332576">
        <ele>1265.5699999999999</ele>
        <time>2025-01-26T08:11:58Z</time>
      </trkpt>
      <trkpt lat="45.866758190095425" lon="7.93677574954927">
        <ele>1265.75</ele>
        <time>2025-01-26T08:12:15Z</time>
      </trkpt>
      <trkpt lat="45.866780569776893" lon="7.936796871945262">
        <ele>1264.96</ele>
        <time>2025-01-26T08:12:40Z</time>
      </trkpt>
      <trkpt lat="45.866787945851684" lon="7.936800727620721">
        <ele>1264.8199999999999</ele>
        <time>2025-01-26T08:13:02Z</time>
      </trkpt>
      <trkpt lat="45.866784593090415" lon="7.936790334060788">
        <ele>1264.5999999999999</ele>
        <time>2025-01-26T08:13:20Z</time>
      </trkpt>
      <trkpt lat="45.866828095167875" lon="7.936824699863792">
        <ele>1264.6400000000001</ele>
        <time>2025-01-26T08:13:47Z</time>
      </trkpt>
      <trkpt lat="45.866780318319798" lon="7.936773654073477">
        <ele>1264.6600000000001</ele>
        <time>2025-01-26T08:14:18Z</time>
      </trkpt>
      <trkpt lat="45.86684687063098" lon="7.936855209991336">
        <ele>1265.04</ele>
        <time>2025-01-26T08:14:27Z</time>
      </trkpt>
      <trkpt lat="45.866933204233646" lon="7.936942297965288">
        <ele>1265.5</ele>
        <time>2025-01-26T08:14:36Z</time>
      </trkpt>
      <trkpt lat="45.867025153711438" lon="7.937003234401345">
        <ele>1265.8599999999999</ele>
        <time>2025-01-26T08:14:43Z</time>
      </trkpt>
      <trkpt lat="45.867116767913103" lon="7.937105828896165">
        <ele>1266.6600000000001</ele>
        <time>2025-01-26T08:14:50Z</time>
      </trkpt>
      <trkpt lat="45.867185080423951" lon="7.937204902991653">
        <ele>1267.8900000000001</ele>
        <time>2025-01-26T08:14:58Z</time>
      </trkpt>
      <trkpt lat="45.867245011031628" lon="7.937299450859428">
        <ele>1269.02</ele>
        <time>2025-01-26T08:15:06Z</time>
      </trkpt>
      <trkpt lat="45.867302594706416" lon="7.937407325953245">
        <ele>1270.3699999999999</ele>
        <time>2025-01-26T08:15:14Z</time>
      </trkpt>
      <trkpt lat="45.867362273856997" lon="7.937504891306162">
        <ele>1271.6099999999999</ele>
        <time>2025-01-26T08:15:22Z</time>
      </trkpt>
      <trkpt lat="45.867428658530116" lon="7.937594158574939">
        <ele>1273.1700000000001</ele>
        <time>2025-01-26T08:15:31Z</time>
      </trkpt>
      <trkpt lat="45.867499904707074" lon="7.937687868252397">
        <ele>1274.8</ele>
        <time>2025-01-26T08:15:41Z</time>
      </trkpt>
      <trkpt lat="45.86759059689939" lon="7.937768585979939">
        <ele>1275.3599999999999</ele>
        <time>2025-01-26T08:15:49Z</time>
      </trkpt>
      <trkpt lat="45.867680450901389" lon="7.937845028936863">
        <ele>1275.8</ele>
        <time>2025-01-26T08:15:57Z</time>
      </trkpt>
      <trkpt lat="45.867774244397879" lon="7.937896242365241">
        <ele>1276.0799999999999</ele>
        <time>2025-01-26T08:16:04Z</time>
      </trkpt>
      <trkpt lat="45.867872731760144" lon="7.937920717522502">
        <ele>1277.0699999999999</ele>
        <time>2025-01-26T08:16:15Z</time>
      </trkpt>
      <trkpt lat="45.86798831820488" lon="7.937889788299799">
        <ele>1278.3399999999999</ele>
        <time>2025-01-26T08:16:25Z</time>
      </trkpt>
      <trkpt lat="45.868077082559466" lon="7.937879478558898">
        <ele>1279.1300000000001</ele>
        <time>2025-01-26T08:16:40Z</time>
      </trkpt>
      <trkpt lat="45.868191327899694" lon="7.937843101099134">
        <ele>1279.78</ele>
        <time>2025-01-26T08:16:52Z</time>
      </trkpt>
      <trkpt lat="45.868267603218555" lon="7.937800185754895">
        <ele>1280.5799999999999</ele>
        <time>2025-01-26T08:17:08Z</time>
      </trkpt>
      <trkpt lat="45.868293000385165" lon="7.937821308150888">
        <ele>1279.98</ele>
        <time>2025-01-26T08:17:55Z</time>
      </trkpt>
      <trkpt lat="45.868360558524728" lon="7.937874114140868">
        <ele>1280.74</ele>
        <time>2025-01-26T08:18:27Z</time>
      </trkpt>
      <trkpt lat="45.868323091417551" lon="7.937878221273422">
        <ele>1281.4000000000001</ele>
        <time>2025-01-26T08:19:18Z</time>
      </trkpt>
      <trkpt lat="45.868359971791506" lon="7.937859361991286">
        <ele>1281.45</ele>
        <time>2025-01-26T08:19:45Z</time>
      </trkpt>
      <trkpt lat="45.86827757768333" lon="7.937875706702471">
        <ele>1281.23</ele>
        <time>2025-01-26T08:20:11Z</time>
      </trkpt>
      <trkpt lat="45.868289731442928" lon="7.937808902934194">
        <ele>1281.1700000000001</ele>
        <time>2025-01-26T08:20:46Z</time>
      </trkpt>
      <trkpt lat="45.868351170793176" lon="7.937859445810318">
        <ele>1281.4300000000001</ele>
        <time>2025-01-26T08:21:12Z</time>
      </trkpt>
      <trkpt lat="45.868323929607868" lon="7.937903953716159">
        <ele>1281.26</ele>
        <time>2025-01-26T08:21:51Z</time>
      </trkpt>
      <trkpt lat="45.868324600160122" lon="7.937874030321837">
        <ele>1281.24</ele>
        <time>2025-01-26T08:22:45Z</time>
      </trkpt>
      <trkpt lat="45.868339519947767" lon="7.937840335071087">
        <ele>1281.76</ele>
        <time>2025-01-26T08:23:58Z</time>
      </trkpt>
      <trkpt lat="45.86831571534276" lon="7.937832288444042">
        <ele>1281.3099999999999</ele>
        <time>2025-01-26T08:24:50Z</time>
      </trkpt>
      <trkpt lat="45.868310518562794" lon="7.93786640278995">
        <ele>1282.1199999999999</ele>
        <time>2025-01-26T08:25:29Z</time>
      </trkpt>
      <trkpt lat="45.868290234357119" lon="7.937855003401637">
        <ele>1282.01</ele>
        <time>2025-01-26T08:26:21Z</time>
      </trkpt>
      <trkpt lat="45.868361564353108" lon="7.937889285385609">
        <ele>1281.95</ele>
        <time>2025-01-26T08:26:51Z</time>
      </trkpt>
      <trkpt lat="45.868452088907361" lon="7.937961872667074">
        <ele>1281.8900000000001</ele>
        <time>2025-01-26T08:27:48Z</time>
      </trkpt>
      <trkpt lat="45.868523586541414" lon="7.938032783567905">
        <ele>1282.24</ele>
        <time>2025-01-26T08:28:33Z</time>
      </trkpt>
      <trkpt lat="45.868580751121044" lon="7.938036723062396">
        <ele>1282.1300000000001</ele>
        <time>2025-01-26T08:29:16Z</time>
      </trkpt>
      <trkpt lat="45.868632299825549" lon="7.938049547374249">
        <ele>1282.8399999999999</ele>
        <time>2025-01-26T08:29:54Z</time>
      </trkpt>
      <trkpt lat="45.868715364485979" lon="7.937986264005303">
        <ele>1283.54</ele>
        <time>2025-01-26T08:30:05Z</time>
      </trkpt>
      <trkpt lat="45.868788035586476" lon="7.937899343669415">
        <ele>1284.6600000000001</ele>
        <time>2025-01-26T08:30:17Z</time>
      </trkpt>
      <trkpt lat="45.868859700858593" lon="7.93781166896224">
        <ele>1286.73</ele>
        <time>2025-01-26T08:30:29Z</time>
      </trkpt>
      <trkpt lat="45.868931114673615" lon="7.937710834667087">
        <ele>1288.04</ele>
        <time>2025-01-26T08:30:41Z</time>
      </trkpt>
      <trkpt lat="45.869012754410505" lon="7.937658363953233">
        <ele>1289.3800000000001</ele>
        <time>2025-01-26T08:30:52Z</time>
      </trkpt>
      <trkpt lat="45.86911023594439" lon="7.937664398923516">
        <ele>1290.8299999999999</ele>
        <time>2025-01-26T08:31:04Z</time>
      </trkpt>
      <trkpt lat="45.869197575375438" lon="7.937710750848055">
        <ele>1292.01</ele>
        <time>2025-01-26T08:31:17Z</time>
      </trkpt>
      <trkpt lat="45.869275024160743" lon="7.937771771103144">
        <ele>1292.21</ele>
        <time>2025-01-26T08:31:43Z</time>
      </trkpt>
      <trkpt lat="45.869355741888285" lon="7.937857685610652">
        <ele>1292.8</ele>
        <time>2025-01-26T08:31:53Z</time>
      </trkpt>
      <trkpt lat="45.869434950873256" lon="7.937899678945541">
        <ele>1293.53</ele>
        <time>2025-01-26T08:32:06Z</time>
      </trkpt>
      <trkpt lat="45.86952212266624" lon="7.937923148274422">
        <ele>1294.24</ele>
        <time>2025-01-26T08:32:18Z</time>
      </trkpt>
      <trkpt lat="45.869611976668239" lon="7.937886686995626">
        <ele>1294.98</ele>
        <time>2025-01-26T08:32:31Z</time>
      </trkpt>
      <trkpt lat="45.869708955287933" lon="7.937924824655056">
        <ele>1295.8399999999999</ele>
        <time>2025-01-26T08:32:45Z</time>
      </trkpt>
      <trkpt lat="45.869802162051201" lon="7.937901522964239">
        <ele>1297.1800000000001</ele>
        <time>2025-01-26T08:33:00Z</time>
      </trkpt>
      <trkpt lat="45.869903080165386" lon="7.937877802178264">
        <ele>1298.6500000000001</ele>
        <time>2025-01-26T08:33:15Z</time>
      </trkpt>
      <trkpt lat="45.870002489537001" lon="7.937867408618331">
        <ele>1299.8299999999999</ele>
        <time>2025-01-26T08:33:29Z</time>
      </trkpt>
      <trkpt lat="45.870094858109951" lon="7.937848968431354">
        <ele>1300.54</ele>
        <time>2025-01-26T08:33:42Z</time>
      </trkpt>
      <trkpt lat="45.870197704061866" lon="7.937831869348884">
        <ele>1301.3499999999999</ele>
        <time>2025-01-26T08:33:56Z</time>
      </trkpt>
      <trkpt lat="45.870298203080893" lon="7.937813512980938">
        <ele>1302.47</ele>
        <time>2025-01-26T08:34:10Z</time>
      </trkpt>
      <trkpt lat="45.870377831161022" lon="7.937800269573927">
        <ele>1303.5899999999999</ele>
        <time>2025-01-26T08:34:41Z</time>
      </trkpt>
      <trkpt lat="45.870476402342319" lon="7.937772190198302">
        <ele>1305.1500000000001</ele>
        <time>2025-01-26T08:34:53Z</time>
      </trkpt>
      <trkpt lat="45.870571369305253" lon="7.937764227390289">
        <ele>1307.01</ele>
        <time>2025-01-26T08:35:03Z</time>
      </trkpt>
      <trkpt lat="45.870682429522276" lon="7.937731286510825">
        <ele>1308.6600000000001</ele>
        <time>2025-01-26T08:35:15Z</time>
      </trkpt>
      <trkpt lat="45.870784688740969" lon="7.937698513269424">
        <ele>1309.8199999999999</ele>
        <time>2025-01-26T08:35:25Z</time>
      </trkpt>
      <trkpt lat="45.870885606855154" lon="7.937682755291462">
        <ele>1310.6400000000001</ele>
        <time>2025-01-26T08:35:35Z</time>
      </trkpt>
      <trkpt lat="45.87099683471024" lon="7.937721312046051">
        <ele>1311.1099999999999</ele>
        <time>2025-01-26T08:35:47Z</time>
      </trkpt>
      <trkpt lat="45.871141757816076" lon="7.937753666192293">
        <ele>1312.0799999999999</ele>
        <time>2025-01-26T08:36:00Z</time>
      </trkpt>
      <trkpt lat="45.871267654001713" lon="7.937815273180604">
        <ele>1313.3599999999999</ele>
        <time>2025-01-26T08:36:17Z</time>
      </trkpt>
      <trkpt lat="45.871415259316564" lon="7.937921639531851">
        <ele>1314.79</ele>
        <time>2025-01-26T08:36:33Z</time>
      </trkpt>
      <trkpt lat="45.871538557112217" lon="7.937964973971248">
        <ele>1315.52</ele>
        <time>2025-01-26T08:36:48Z</time>
      </trkpt>
      <trkpt lat="45.871631260961294" lon="7.937938990071416">
        <ele>1316.04</ele>
        <time>2025-01-26T08:37:06Z</time>
      </trkpt>
      <trkpt lat="45.87175028398633" lon="7.937963465228677">
        <ele>1316.5999999999999</ele>
        <time>2025-01-26T08:37:20Z</time>
      </trkpt>
      <trkpt lat="45.871858913451433" lon="7.937988275662065">
        <ele>1316.8299999999999</ele>
        <time>2025-01-26T08:37:33Z</time>
      </trkpt>
      <trkpt lat="45.871958490461111" lon="7.937867073342204">
        <ele>1317.8099999999999</ele>
        <time>2025-01-26T08:37:44Z</time>
      </trkpt>
      <trkpt lat="45.872045494616032" lon="7.937791971489787">
        <ele>1318.3699999999999</ele>
        <time>2025-01-26T08:37:58Z</time>
      </trkpt>
      <trkpt lat="45.872121769934893" lon="7.93771343305707">
        <ele>1318.8299999999999</ele>
        <time>2025-01-26T08:38:07Z</time>
      </trkpt>
      <trkpt lat="45.872179521247745" lon="7.937595080584288">
        <ele>1319.0699999999999</ele>
        <time>2025-01-26T08:38:16Z</time>
      </trkpt>
      <trkpt lat="45.872242050245404" lon="7.937506316229701">
        <ele>1319.6900000000001</ele>
        <time>2025-01-26T08:38:27Z</time>
      </trkpt>
      <trkpt lat="45.872324611991644" lon="7.937402129173279">
        <ele>1320.52</ele>
        <time>2025-01-26T08:38:41Z</time>
      </trkpt>
      <trkpt lat="45.872392673045397" lon="7.937275730073452">
        <ele>1321.55</ele>
        <time>2025-01-26T08:38:55Z</time>
      </trkpt>
      <trkpt lat="45.872460566461086" lon="7.937169782817364">
        <ele>1322.55</ele>
        <time>2025-01-26T08:39:09Z</time>
      </trkpt>
      <trkpt lat="45.872544720768929" lon="7.937080012634397">
        <ele>1323.6700000000001</ele>
        <time>2025-01-26T08:39:23Z</time>
      </trkpt>
      <trkpt lat="45.87262979708612" lon="7.93703081086278">
        <ele>1324.98</ele>
        <time>2025-01-26T08:39:34Z</time>
      </trkpt>
      <trkpt lat="45.872708335518837" lon="7.936978675425053">
        <ele>1325.3800000000001</ele>
        <time>2025-01-26T08:39:45Z</time>
      </trkpt>
      <trkpt lat="45.872791651636362" lon="7.936925953254104">
        <ele>1325.8599999999999</ele>
        <time>2025-01-26T08:39:56Z</time>
      </trkpt>
      <trkpt lat="45.872870609164238" lon="7.936871889978647">
        <ele>1325.6900000000001</ele>
        <time>2025-01-26T08:40:07Z</time>
      </trkpt>
      <trkpt lat="45.872956942766905" lon="7.936843307688832">
        <ele>1324.79</ele>
        <time>2025-01-26T08:40:25Z</time>
      </trkpt>
      <trkpt lat="45.873049227520823" lon="7.93679385446012">
        <ele>1324.74</ele>
        <time>2025-01-26T08:40:36Z</time>
      </trkpt>
      <trkpt lat="45.87314285337925" lon="7.936772312968969">
        <ele>1324.8900000000001</ele>
        <time>2025-01-26T08:40:48Z</time>
      </trkpt>
      <trkpt lat="45.873235808685422" lon="7.936781700700522">
        <ele>1325.3499999999999</ele>
        <time>2025-01-26T08:41:09Z</time>
      </trkpt>
      <trkpt lat="45.873328009620309" lon="7.936799554154277">
        <ele>1328.4400000000001</ele>
        <time>2025-01-26T08:41:27Z</time>
      </trkpt>
      <trkpt lat="45.87340721860528" lon="7.936711460351944">
        <ele>1328.71</ele>
        <time>2025-01-26T08:41:40Z</time>
      </trkpt>
      <trkpt lat="45.873495144769549" lon="7.936731576919556">
        <ele>1330.1300000000001</ele>
        <time>2025-01-26T08:41:58Z</time>
      </trkpt>
      <trkpt lat="45.873598828911781" lon="7.936709448695183">
        <ele>1331.47</ele>
        <time>2025-01-26T08:42:16Z</time>
      </trkpt>
      <trkpt lat="45.873712655156851" lon="7.936733588576317">
        <ele>1332.4100000000001</ele>
        <time>2025-01-26T08:42:32Z</time>
      </trkpt>
      <trkpt lat="45.87378541007638" lon="7.936788238584995">
        <ele>1334.1600000000001</ele>
        <time>2025-01-26T08:42:47Z</time>
      </trkpt>
      <trkpt lat="45.873881299048662" lon="7.9367811139673">
        <ele>1335.9200000000001</ele>
        <time>2025-01-26T08:43:05Z</time>
      </trkpt>
      <trkpt lat="45.873991772532463" lon="7.936748173087835">
        <ele>1336.9000000000001</ele>
        <time>2025-01-26T08:43:21Z</time>
      </trkpt>
      <trkpt lat="45.8740917686373" lon="7.936788406223059">
        <ele>1337.1600000000001</ele>
        <time>2025-01-26T08:43:33Z</time>
      </trkpt>
      <trkpt lat="45.874164272099733" lon="7.93687691912055">
        <ele>1338.02</ele>
        <time>2025-01-26T08:43:47Z</time>
      </trkpt>
      <trkpt lat="45.874262088909745" lon="7.93688572011888">
        <ele>1339.53</ele>
        <time>2025-01-26T08:44:07Z</time>
      </trkpt>
      <trkpt lat="45.874362336471677" lon="7.93687934987247">
        <ele>1339.21</ele>
        <time>2025-01-26T08:44:21Z</time>
      </trkpt>
      <trkpt lat="45.87445872835815" lon="7.936870129778981">
        <ele>1339.46</ele>
        <time>2025-01-26T08:44:36Z</time>
      </trkpt>
      <trkpt lat="45.874552689492702" lon="7.936907429248095">
        <ele>1339.79</ele>
        <time>2025-01-26T08:44:49Z</time>
      </trkpt>
      <trkpt lat="45.874657211825252" lon="7.936867531388998">
        <ele>1340.21</ele>
        <time>2025-01-26T08:45:03Z</time>
      </trkpt>
      <trkpt lat="45.874769948422909" lon="7.936866525560617">
        <ele>1340.3399999999999</ele>
        <time>2025-01-26T08:45:18Z</time>
      </trkpt>
      <trkpt lat="45.874854773283005" lon="7.936819167807698">
        <ele>1340.73</ele>
        <time>2025-01-26T08:45:32Z</time>
      </trkpt>
      <trkpt lat="45.874979747459292" lon="7.936794189736247">
        <ele>1341.5</ele>
        <time>2025-01-26T08:45:46Z</time>
      </trkpt>
      <trkpt lat="45.875060632824898" lon="7.93670492246747">
        <ele>1342.6300000000001</ele>
        <time>2025-01-26T08:46:03Z</time>
      </trkpt>
      <trkpt lat="45.875155767425895" lon="7.936673825606704">
        <ele>1344.3900000000001</ele>
        <time>2025-01-26T08:46:21Z</time>
      </trkpt>
      <trkpt lat="45.87526791729033" lon="7.936651445925236">
        <ele>1345.1700000000001</ele>
        <time>2025-01-26T08:46:38Z</time>
      </trkpt>
      <trkpt lat="45.875391466543078" lon="7.93658958747983">
        <ele>1346.3900000000001</ele>
        <time>2025-01-26T08:46:58Z</time>
      </trkpt>
      <trkpt lat="45.875460868701339" lon="7.936492525041103">
        <ele>1347.6300000000001</ele>
        <time>2025-01-26T08:47:14Z</time>
      </trkpt>
      <trkpt lat="45.875534377992153" lon="7.936370987445116">
        <ele>1348.22</ele>
        <time>2025-01-26T08:47:31Z</time>
      </trkpt>
      <trkpt lat="45.875616688281298" lon="7.936239056289196">
        <ele>1349.1700000000001</ele>
        <time>2025-01-26T08:47:49Z</time>
      </trkpt>
      <trkpt lat="45.875723054632545" lon="7.936208127066493">
        <ele>1350.1400000000001</ele>
        <time>2025-01-26T08:48:05Z</time>
      </trkpt>
      <trkpt lat="45.875771082937717" lon="7.936132019385696">
        <ele>1352.6500000000001</ele>
        <time>2025-01-26T08:48:25Z</time>
      </trkpt>
      <trkpt lat="45.875879963859916" lon="7.936111567541957">
        <ele>1354.96</ele>
        <time>2025-01-26T08:48:45Z</time>
      </trkpt>
      <trkpt lat="45.875958418473601" lon="7.936143418774009">
        <ele>1357.9200000000001</ele>
        <time>2025-01-26T08:49:09Z</time>
      </trkpt>
      <trkpt lat="45.876066712662578" lon="7.936233691871166">
        <ele>1360.21</ele>
        <time>2025-01-26T08:49:26Z</time>
      </trkpt>
      <trkpt lat="45.87614793330431" lon="7.936295717954636">
        <ele>1362.28</ele>
        <time>2025-01-26T08:49:46Z</time>
      </trkpt>
      <trkpt lat="45.876241642981768" lon="7.936376100406051">
        <ele>1365.1199999999999</ele>
        <time>2025-01-26T08:50:10Z</time>
      </trkpt>
      <trkpt lat="45.876332502812147" lon="7.936400240287185">
        <ele>1367.8800000000001</ele>
        <time>2025-01-26T08:50:45Z</time>
      </trkpt>
      <trkpt lat="45.876340633258224" lon="7.936384398490191">
        <ele>1366.8</ele>
        <time>2025-01-26T08:52:20Z</time>
      </trkpt>
      <trkpt lat="45.876350188627839" lon="7.936442401260138">
        <ele>1367.3</ele>
        <time>2025-01-26T08:53:38Z</time>
      </trkpt>
      <trkpt lat="45.876403413712978" lon="7.936518006026745">
        <ele>1369.3299999999999</ele>
        <time>2025-01-26T08:53:54Z</time>
      </trkpt>
      <trkpt lat="45.87647432461381" lon="7.936531165614724">
        <ele>1371.71</ele>
        <time>2025-01-26T08:54:10Z</time>
      </trkpt>
      <trkpt lat="45.876532327383757" lon="7.936508450657129">
        <ele>1372.3699999999999</ele>
        <time>2025-01-26T08:54:42Z</time>
      </trkpt>
      <trkpt lat="45.876566777005792" lon="7.936400407925248">
        <ele>1372.6400000000001</ele>
        <time>2025-01-26T08:55:00Z</time>
      </trkpt>
      <trkpt lat="45.876653445884585" lon="7.936319271102548">
        <ele>1375.3099999999999</ele>
        <time>2025-01-26T08:55:19Z</time>
      </trkpt>
      <trkpt lat="45.876705581322312" lon="7.936189603060484">
        <ele>1376.46</ele>
        <time>2025-01-26T08:55:37Z</time>
      </trkpt>
      <trkpt lat="45.87677096016705" lon="7.936092456802726">
        <ele>1379.23</ele>
        <time>2025-01-26T08:55:59Z</time>
      </trkpt>
      <trkpt lat="45.876832567155361" lon="7.935991706326604">
        <ele>1380.26</ele>
        <time>2025-01-26T08:56:19Z</time>
      </trkpt>
      <trkpt lat="45.876913787797093" lon="7.935915347188711">
        <ele>1381.3599999999999</ele>
        <time>2025-01-26T08:56:37Z</time>
      </trkpt>
      <trkpt lat="45.877002300694585" lon="7.935886597260833">
        <ele>1383.8900000000001</ele>
        <time>2025-01-26T08:57:00Z</time>
      </trkpt>
      <trkpt lat="45.877069188281894" lon="7.935806717723608">
        <ele>1385.76</ele>
        <time>2025-01-26T08:57:19Z</time>
      </trkpt>
      <trkpt lat="45.877133477479219" lon="7.935752235352993">
        <ele>1385.97</ele>
        <time>2025-01-26T08:57:59Z</time>
      </trkpt>
      <trkpt lat="45.877207824960351" lon="7.935820547863841">
        <ele>1389.4400000000001</ele>
        <time>2025-01-26T08:58:18Z</time>
      </trkpt>
      <trkpt lat="45.877304887399077" lon="7.935861116275191">
        <ele>1392.72</ele>
        <time>2025-01-26T08:58:41Z</time>
      </trkpt>
      <trkpt lat="45.877388790249825" lon="7.935797413811088">
        <ele>1394.9400000000001</ele>
        <time>2025-01-26T08:58:59Z</time>
      </trkpt>
      <trkpt lat="45.877482416108251" lon="7.935713762417436">
        <ele>1396.0799999999999</ele>
        <time>2025-01-26T08:59:18Z</time>
      </trkpt>
      <trkpt lat="45.877567995339632" lon="7.935661124065518">
        <ele>1398.02</ele>
        <time>2025-01-26T08:59:39Z</time>
      </trkpt>
      <trkpt lat="45.87765684351325" lon="7.935685347765684">
        <ele>1397.27</ele>
        <time>2025-01-26T08:59:57Z</time>
      </trkpt>
      <trkpt lat="45.877748290076852" lon="7.9356431029737">
        <ele>1396.0999999999999</ele>
        <time>2025-01-26T09:00:39Z</time>
      </trkpt>
      <trkpt lat="45.87782297283411" lon="7.935620388016105">
        <ele>1394.8699999999999</ele>
        <time>2025-01-26T09:01:03Z</time>
      </trkpt>
      <trkpt lat="45.877926237881184" lon="7.935636816546321">
        <ele>1393.8199999999999</ele>
        <time>2025-01-26T09:01:17Z</time>
      </trkpt>
      <trkpt lat="45.878023635596037" lon="7.935602115467191">
        <ele>1392.6700000000001</ele>
        <time>2025-01-26T09:01:29Z</time>
      </trkpt>
      <trkpt lat="45.878122709691525" lon="7.935559032484889">
        <ele>1392.54</ele>
        <time>2025-01-26T09:01:40Z</time>
      </trkpt>
      <trkpt lat="45.878203930333257" lon="7.935536066070199">
        <ele>1394.4200000000001</ele>
        <time>2025-01-26T09:02:08Z</time>
      </trkpt>
      <trkpt lat="45.878292778506875" lon="7.935582417994738">
        <ele>1397.04</ele>
        <time>2025-01-26T09:02:23Z</time>
      </trkpt>
      <trkpt lat="45.878389254212379" lon="7.935476386919618">
        <ele>1398.1099999999999</ele>
        <time>2025-01-26T09:02:39Z</time>
      </trkpt>
      <trkpt lat="45.878484891727567" lon="7.935412097722292">
        <ele>1398.21</ele>
        <time>2025-01-26T09:02:54Z</time>
      </trkpt>
      <trkpt lat="45.878549516201019" lon="7.935292571783066">
        <ele>1397.1300000000001</ele>
        <time>2025-01-26T09:03:10Z</time>
      </trkpt>
      <trkpt lat="45.878606094047427" lon="7.93515108525753">
        <ele>1395.8800000000001</ele>
        <time>2025-01-26T09:03:24Z</time>
      </trkpt>
      <trkpt lat="45.878650518134236" lon="7.935015968978405">
        <ele>1394.23</ele>
        <time>2025-01-26T09:03:34Z</time>
      </trkpt>
      <trkpt lat="45.878695193678141" lon="7.934899041429162">
        <ele>1393.95</ele>
        <time>2025-01-26T09:03:49Z</time>
      </trkpt>
      <trkpt lat="45.878739701583982" lon="7.934762416407466">
        <ele>1394.1900000000001</ele>
        <time>2025-01-26T09:04:01Z</time>
      </trkpt>
      <trkpt lat="45.878681112080812" lon="7.93471765704453">
        <ele>1393.6099999999999</ele>
        <time>2025-01-26T09:04:13Z</time>
      </trkpt>
      <trkpt lat="45.878598634153605" lon="7.934679100289941">
        <ele>1393.1099999999999</ele>
        <time>2025-01-26T09:04:22Z</time>
      </trkpt>
      <trkpt lat="45.878545073792338" lon="7.934626126661897">
        <ele>1392.8399999999999</ele>
        <time>2025-01-26T09:04:43Z</time>
      </trkpt>
      <trkpt lat="45.878570890054107" lon="7.934634340927005">
        <ele>1392.24</ele>
        <time>2025-01-26T09:05:50Z</time>
      </trkpt>
      <trkpt lat="45.878672394901514" lon="7.934607937932015">
        <ele>1392.4100000000001</ele>
        <time>2025-01-26T09:06:01Z</time>
      </trkpt>
      <trkpt lat="45.878798458725214" lon="7.934557646512985">
        <ele>1392.4100000000001</ele>
        <time>2025-01-26T09:06:16Z</time>
      </trkpt>
      <trkpt lat="45.878909854218364" lon="7.934572314843535">
        <ele>1392.8099999999999</ele>
        <time>2025-01-26T09:06:25Z</time>
      </trkpt>
      <trkpt lat="45.878981351852417" lon="7.934552952647209">
        <ele>1393.5899999999999</ele>
        <time>2025-01-26T09:06:34Z</time>
      </trkpt>
      <trkpt lat="45.879065254703164" lon="7.934475168585777">
        <ele>1395.3900000000001</ele>
        <time>2025-01-26T09:06:45Z</time>
      </trkpt>
      <trkpt lat="45.879143290221691" lon="7.934367377310991">
        <ele>1396.3800000000001</ele>
        <time>2025-01-26T09:06:56Z</time>
      </trkpt>
      <trkpt lat="45.879230378195643" lon="7.934289928525686">
        <ele>1397.29</ele>
        <time>2025-01-26T09:07:07Z</time>
      </trkpt>
      <trkpt lat="45.879315203055739" lon="7.934225220233202">
        <ele>1398.1700000000001</ele>
        <time>2025-01-26T09:07:18Z</time>
      </trkpt>
      <trkpt lat="45.879398519173265" lon="7.934136791154742">
        <ele>1399</ele>
        <time>2025-01-26T09:07:32Z</time>
      </trkpt>
      <trkpt lat="45.879451241344213" lon="7.934058839455247">
        <ele>1399.5899999999999</ele>
        <time>2025-01-26T09:08:07Z</time>
      </trkpt>
      <trkpt lat="45.879540676251054" lon="7.934001507237554">
        <ele>1402.51</ele>
        <time>2025-01-26T09:08:22Z</time>
      </trkpt>
      <trkpt lat="45.879635727033019" lon="7.933991616591811">
        <ele>1400.5999999999999</ele>
        <time>2025-01-26T09:08:32Z</time>
      </trkpt>
      <trkpt lat="45.879728933796287" lon="7.93399446643889">
        <ele>1400.98</ele>
        <time>2025-01-26T09:08:54Z</time>
      </trkpt>
      <trkpt lat="45.879822392016649" lon="7.933963872492313">
        <ele>1401.6900000000001</ele>
        <time>2025-01-26T09:09:14Z</time>
      </trkpt>
      <trkpt lat="45.879898080602288" lon="7.933939229696989">
        <ele>1401.6500000000001</ele>
        <time>2025-01-26T09:09:40Z</time>
      </trkpt>
      <trkpt lat="45.879982402548194" lon="7.933858092874289">
        <ele>1401.5899999999999</ele>
        <time>2025-01-26T09:10:04Z</time>
      </trkpt>
      <trkpt lat="45.880018109455705" lon="7.933842251077294">
        <ele>1402.2</ele>
        <time>2025-01-26T09:10:56Z</time>
      </trkpt>
      <trkpt lat="45.880111400038004" lon="7.933793216943741">
        <ele>1405.05</ele>
        <time>2025-01-26T09:11:15Z</time>
      </trkpt>
      <trkpt lat="45.880217095836997" lon="7.933678384870291">
        <ele>1408.8800000000001</ele>
        <time>2025-01-26T09:11:39Z</time>
      </trkpt>
      <trkpt lat="45.880280127748847" lon="7.933578221127391">
        <ele>1412.0699999999999</ele>
        <time>2025-01-26T09:12:00Z</time>
      </trkpt>
      <trkpt lat="45.880352966487408" lon="7.933495659381151">
        <ele>1414.9000000000001</ele>
        <time>2025-01-26T09:12:26Z</time>
      </trkpt>
      <trkpt lat="45.88039118796587" lon="7.93334998190403">
        <ele>1417.1700000000001</ele>
        <time>2025-01-26T09:12:51Z</time>
      </trkpt>
      <trkpt lat="45.880427900701761" lon="7.933243783190846">
        <ele>1419.04</ele>
        <time>2025-01-26T09:13:18Z</time>
      </trkpt>
      <trkpt lat="45.880454555153847" lon="7.933126771822572">
        <ele>1421.75</ele>
        <time>2025-01-26T09:13:45Z</time>
      </trkpt>
      <trkpt lat="45.880456231534481" lon="7.933027362450957">
        <ele>1423.9100000000001</ele>
        <time>2025-01-26T09:14:15Z</time>
      </trkpt>
      <trkpt lat="45.880525885149837" lon="7.932935664430261">
        <ele>1426.8</ele>
        <time>2025-01-26T09:14:46Z</time>
      </trkpt>
      <trkpt lat="45.880604507401586" lon="7.932836674153805">
        <ele>1429.45</ele>
        <time>2025-01-26T09:15:05Z</time>
      </trkpt>
      <trkpt lat="45.880637783557177" lon="7.932756710797548">
        <ele>1431.0799999999999</ele>
        <time>2025-01-26T09:15:31Z</time>
      </trkpt>
      <trkpt lat="45.88069754652679" lon="7.932739444077015">
        <ele>1432.47</ele>
        <time>2025-01-26T09:16:31Z</time>
      </trkpt>
      <trkpt lat="45.880766697227955" lon="7.932617152109742">
        <ele>1435.77</ele>
        <time>2025-01-26T09:16:45Z</time>
      </trkpt>
      <trkpt lat="45.880818832665682" lon="7.932485304772854">
        <ele>1438.6600000000001</ele>
        <time>2025-01-26T09:17:01Z</time>
      </trkpt>
      <trkpt lat="45.880868956446648" lon="7.932370388880372">
        <ele>1441.5</ele>
        <time>2025-01-26T09:17:19Z</time>
      </trkpt>
      <trkpt lat="45.880903573706746" lon="7.932196464389563">
        <ele>1443.8900000000001</ele>
        <time>2025-01-26T09:17:40Z</time>
      </trkpt>
      <trkpt lat="45.880907261744142" lon="7.932156482711434">
        <ele>1439.6199999999999</ele>
        <time>2025-01-26T09:22:30Z</time>
      </trkpt>
      <trkpt lat="45.880946237593889" lon="7.932037292048335">
        <ele>1440.6199999999999</ele>
        <time>2025-01-26T09:22:45Z</time>
      </trkpt>
      <trkpt lat="45.881008263677359" lon="7.931931093335152">
        <ele>1440.76</ele>
        <time>2025-01-26T09:23:01Z</time>
      </trkpt>
      <trkpt lat="45.881058890372515" lon="7.931744595989585">
        <ele>1440.72</ele>
        <time>2025-01-26T09:23:14Z</time>
      </trkpt>
      <trkpt lat="45.881133656948805" lon="7.931585423648357">
        <ele>1440.9200000000001</ele>
        <time>2025-01-26T09:23:28Z</time>
      </trkpt>
      <trkpt lat="45.881161820143461" lon="7.931432034820318">
        <ele>1441.3199999999999</ele>
        <time>2025-01-26T09:23:39Z</time>
      </trkpt>
      <trkpt lat="45.881240861490369" lon="7.931317454203963">
        <ele>1441.4000000000001</ele>
        <time>2025-01-26T09:23:54Z</time>
      </trkpt>
      <trkpt lat="45.881316298618913" lon="7.931181415915489">
        <ele>1440.6800000000001</ele>
        <time>2025-01-26T09:24:10Z</time>
      </trkpt>
      <trkpt lat="45.881381928920746" lon="7.931050406768918">
        <ele>1440.51</ele>
        <time>2025-01-26T09:24:24Z</time>
      </trkpt>
      <trkpt lat="45.881428951397538" lon="7.930922666564584">
        <ele>1441.1300000000001</ele>
        <time>2025-01-26T09:24:44Z</time>
      </trkpt>
      <trkpt lat="45.881519978865981" lon="7.930828789249063">
        <ele>1444.3599999999999</ele>
        <time>2025-01-26T09:25:02Z</time>
      </trkpt>
      <trkpt lat="45.881580328568816" lon="7.930767182260752">
        <ele>1446.04</ele>
        <time>2025-01-26T09:25:23Z</time>
      </trkpt>
      <trkpt lat="45.881643863394856" lon="7.930704988539219">
        <ele>1448.99</ele>
        <time>2025-01-26T09:25:47Z</time>
      </trkpt>
      <trkpt lat="45.881728772073984" lon="7.930682944133878">
        <ele>1450.8</ele>
        <time>2025-01-26T09:26:02Z</time>
      </trkpt>
      <trkpt lat="45.881809405982494" lon="7.930694511160255">
        <ele>1452.9200000000001</ele>
        <time>2025-01-26T09:26:23Z</time>
      </trkpt>
      <trkpt lat="45.88190445676446" lon="7.930695852264762">
        <ele>1456.0699999999999</ele>
        <time>2025-01-26T09:26:43Z</time>
      </trkpt>
      <trkpt lat="45.881992969661951" lon="7.930669030174613">
        <ele>1458.72</ele>
        <time>2025-01-26T09:27:04Z</time>
      </trkpt>
      <trkpt lat="45.882075028494" lon="7.930623684078455">
        <ele>1461.3399999999999</ele>
        <time>2025-01-26T09:27:28Z</time>
      </trkpt>
      <trkpt lat="45.882170917466283" lon="7.930578254163265">
        <ele>1463.3499999999999</ele>
        <time>2025-01-26T09:28:00Z</time>
      </trkpt>
      <trkpt lat="45.882211737334728" lon="7.930682273581624">
        <ele>1464.2</ele>
        <time>2025-01-26T09:28:36Z</time>
      </trkpt>
      <trkpt lat="45.882324557751417" lon="7.930639106780291">
        <ele>1466.76</ele>
        <time>2025-01-26T09:28:52Z</time>
      </trkpt>
      <trkpt lat="45.882409634068608" lon="7.930598286911845">
        <ele>1469.6700000000001</ele>
        <time>2025-01-26T09:29:10Z</time>
      </trkpt>
      <trkpt lat="45.882499068975449" lon="7.930577583611012">
        <ele>1471.77</ele>
        <time>2025-01-26T09:29:29Z</time>
      </trkpt>
      <trkpt lat="45.882570063695312" lon="7.930667689070106">
        <ele>1474.27</ele>
        <time>2025-01-26T09:29:49Z</time>
      </trkpt>
      <trkpt lat="45.88261348195374" lon="7.930596107617021">
        <ele>1477.26</ele>
        <time>2025-01-26T09:30:11Z</time>
      </trkpt>
      <trkpt lat="45.882657486945391" lon="7.930579092353582">
        <ele>1477.5999999999999</ele>
        <time>2025-01-26T09:30:40Z</time>
      </trkpt>
      <trkpt lat="45.882687494158745" lon="7.930553527548909">
        <ele>1483.0999999999999</ele>
        <time>2025-01-26T09:31:53Z</time>
      </trkpt>
      <trkpt lat="45.882721859961748" lon="7.930691912770271">
        <ele>1484.9000000000001</ele>
        <time>2025-01-26T09:32:16Z</time>
      </trkpt>
      <trkpt lat="45.882737282663584" lon="7.930769445374608">
        <ele>1487.7</ele>
        <time>2025-01-26T09:32:44Z</time>
      </trkpt>
      <trkpt lat="45.882792435586452" lon="7.930785370990634">
        <ele>1492.0899999999999</ele>
        <time>2025-01-26T09:33:07Z</time>
      </trkpt>
      <trkpt lat="45.882855383679271" lon="7.930808588862419">
        <ele>1496.6600000000001</ele>
        <time>2025-01-26T09:33:47Z</time>
      </trkpt>
      <trkpt lat="45.882906764745712" lon="7.930691745132208">
        <ele>1499.6600000000001</ele>
        <time>2025-01-26T09:34:07Z</time>
      </trkpt>
      <trkpt lat="45.882952949032187" lon="7.930672382935882">
        <ele>1502.21</ele>
        <time>2025-01-26T09:34:34Z</time>
      </trkpt>
      <trkpt lat="45.882965857163072" lon="7.930650673806667">
        <ele>1505.1400000000001</ele>
        <time>2025-01-26T09:35:08Z</time>
      </trkpt>
      <trkpt lat="45.883053531870246" lon="7.93057699687779">
        <ele>1509.27</ele>
        <time>2025-01-26T09:35:34Z</time>
      </trkpt>
      <trkpt lat="45.883041210472584" lon="7.930675903335214">
        <ele>1509.6700000000001</ele>
        <time>2025-01-26T09:36:20Z</time>
      </trkpt>
      <trkpt lat="45.883137937635183" lon="7.930589569732547">
        <ele>1514.3299999999999</ele>
        <time>2025-01-26T09:36:41Z</time>
      </trkpt>
      <trkpt lat="45.883158892393112" lon="7.930531902238727">
        <ele>1519.3900000000001</ele>
        <time>2025-01-26T09:37:07Z</time>
      </trkpt>
      <trkpt lat="45.883205076679587" lon="7.930571045726538">
        <ele>1520.4300000000001</ele>
        <time>2025-01-26T09:37:45Z</time>
      </trkpt>
      <trkpt lat="45.883257882669568" lon="7.930496698245406">
        <ele>1525.6700000000001</ele>
        <time>2025-01-26T09:38:10Z</time>
      </trkpt>
      <trkpt lat="45.883310521021485" lon="7.930385386571288">
        <ele>1528.8499999999999</ele>
        <time>2025-01-26T09:38:35Z</time>
      </trkpt>
      <trkpt lat="45.883363075554371" lon="7.930315062403679">
        <ele>1531.01</ele>
        <time>2025-01-26T09:39:15Z</time>
      </trkpt>
      <trkpt lat="45.883378582075238" lon="7.930220346897841">
        <ele>1533.8</ele>
        <time>2025-01-26T09:39:55Z</time>
      </trkpt>
      <trkpt lat="45.883357040584087" lon="7.930167876183987">
        <ele>1535.4000000000001</ele>
        <time>2025-01-26T09:40:31Z</time>
      </trkpt>
      <trkpt lat="45.883343880996108" lon="7.930205343291163">
        <ele>1535.1900000000001</ele>
        <time>2025-01-26T09:41:58Z</time>
      </trkpt>
      <trkpt lat="45.88335033506155" lon="7.930100904777646">
        <ele>1539.1600000000001</ele>
        <time>2025-01-26T09:43:05Z</time>
      </trkpt>
      <trkpt lat="45.883311945945024" lon="7.93007374741137">
        <ele>1540.6700000000001</ele>
        <time>2025-01-26T09:44:09Z</time>
      </trkpt>
      <trkpt lat="45.883338516578078" lon="7.929939469322562">
        <ele>1545.1199999999999</ele>
        <time>2025-01-26T09:44:35Z</time>
      </trkpt>
      <trkpt lat="45.883400207385421" lon="7.929809801280499">
        <ele>1548.51</ele>
        <time>2025-01-26T09:45:55Z</time>
      </trkpt>
      <trkpt lat="45.883400039747357" lon="7.929697316139936">
        <ele>1550.3900000000001</ele>
        <time>2025-01-26T09:46:34Z</time>
      </trkpt>
      <trkpt lat="45.883401213213801" lon="7.92956362478435">
        <ele>1551.05</ele>
        <time>2025-01-26T09:47:03Z</time>
      </trkpt>
      <trkpt lat="45.883418563753366" lon="7.929471842944622">
        <ele>1550.46</ele>
        <time>2025-01-26T09:47:58Z</time>
      </trkpt>
      <trkpt lat="45.883438093587756" lon="7.929396824911237">
        <ele>1553.1800000000001</ele>
        <time>2025-01-26T09:48:19Z</time>
      </trkpt>
      <trkpt lat="45.883530210703611" lon="7.929357346147299">
        <ele>1556.29</ele>
        <time>2025-01-26T09:48:43Z</time>
      </trkpt>
      <trkpt lat="45.883618388324976" lon="7.929373690858483">
        <ele>1558.8399999999999</ele>
        <time>2025-01-26T09:49:09Z</time>
      </trkpt>
      <trkpt lat="45.883706146851182" lon="7.929411996155977">
        <ele>1560.5</ele>
        <time>2025-01-26T09:49:47Z</time>
      </trkpt>
      <trkpt lat="45.883720479905605" lon="7.929303450509906">
        <ele>1562.72</ele>
        <time>2025-01-26T09:50:13Z</time>
      </trkpt>
      <trkpt lat="45.883718132972717" lon="7.929160203784704">
        <ele>1565.01</ele>
        <time>2025-01-26T09:50:46Z</time>
      </trkpt>
      <trkpt lat="45.883745960891247" lon="7.9290188010782">
        <ele>1566.6700000000001</ele>
        <time>2025-01-26T09:51:03Z</time>
      </trkpt>
      <trkpt lat="45.883758449926972" lon="7.928915787488222">
        <ele>1568.9400000000001</ele>
        <time>2025-01-26T09:51:27Z</time>
      </trkpt>
      <trkpt lat="45.883757947012782" lon="7.928793914616108">
        <ele>1571.05</ele>
        <time>2025-01-26T09:51:47Z</time>
      </trkpt>
      <trkpt lat="45.883731376379728" lon="7.928694421425462">
        <ele>1571.25</ele>
        <time>2025-01-26T09:52:10Z</time>
      </trkpt>
      <trkpt lat="45.883746379986405" lon="7.928554276004434">
        <ele>1571.5799999999999</ele>
        <time>2025-01-26T09:52:45Z</time>
      </trkpt>
      <trkpt lat="45.883782086893916" lon="7.928403737023473">
        <ele>1572.97</ele>
        <time>2025-01-26T09:53:23Z</time>
      </trkpt>
      <trkpt lat="45.883856518194079" lon="7.928298963233829">
        <ele>1573.48</ele>
        <time>2025-01-26T09:53:39Z</time>
      </trkpt>
      <trkpt lat="45.883909156545997" lon="7.928184969350696">
        <ele>1573.74</ele>
        <time>2025-01-26T09:53:58Z</time>
      </trkpt>
      <trkpt lat="45.883940923959017" lon="7.928013475611806">
        <ele>1574.04</ele>
        <time>2025-01-26T09:54:18Z</time>
      </trkpt>
      <trkpt lat="45.883937487378716" lon="7.927986569702625">
        <ele>1572.6300000000001</ele>
        <time>2025-01-26T10:00:42Z</time>
      </trkpt>
      <trkpt lat="45.883962549269199" lon="7.927938289940357">
        <ele>1574.8399999999999</ele>
        <time>2025-01-26T10:03:16Z</time>
      </trkpt>
      <trkpt lat="45.884030526503921" lon="7.927808621898294">
        <ele>1575.5899999999999</ele>
        <time>2025-01-26T10:04:53Z</time>
      </trkpt>
      <trkpt lat="45.88408668525517" lon="7.927677696570754">
        <ele>1576.02</ele>
        <time>2025-01-26T10:05:05Z</time>
      </trkpt>
      <trkpt lat="45.884146196767688" lon="7.927594296634197">
        <ele>1576.4100000000001</ele>
        <time>2025-01-26T10:05:26Z</time>
      </trkpt>
      <trkpt lat="45.884202774614096" lon="7.927504610270262">
        <ele>1577.02</ele>
        <time>2025-01-26T10:06:18Z</time>
      </trkpt>
      <trkpt lat="45.884243259206414" lon="7.927381563931704">
        <ele>1577.6600000000001</ele>
        <time>2025-01-26T10:06:42Z</time>
      </trkpt>
      <trkpt lat="45.884260358288884" lon="7.927266648039222">
        <ele>1578.21</ele>
        <time>2025-01-26T10:06:59Z</time>
      </trkpt>
      <trkpt lat="45.884262202307582" lon="7.927116611972451">
        <ele>1578.55</ele>
        <time>2025-01-26T10:07:12Z</time>
      </trkpt>
      <trkpt lat="45.884230518713593" lon="7.926961965858936">
        <ele>1581.22</ele>
        <time>2025-01-26T10:07:29Z</time>
      </trkpt>
      <trkpt lat="45.884230099618435" lon="7.926831794902682">
        <ele>1581.6400000000001</ele>
        <time>2025-01-26T10:07:50Z</time>
      </trkpt>
      <trkpt lat="45.884200511500239" lon="7.926695169880986">
        <ele>1582.05</ele>
        <time>2025-01-26T10:08:04Z</time>
      </trkpt>
      <trkpt lat="45.884190620854497" lon="7.926559885963798">
        <ele>1582.6800000000001</ele>
        <time>2025-01-26T10:08:15Z</time>
      </trkpt>
      <trkpt lat="45.88415608741343" lon="7.926428792998195">
        <ele>1584.1500000000001</ele>
        <time>2025-01-26T10:08:28Z</time>
      </trkpt>
      <trkpt lat="45.884199254214764" lon="7.926292335614562">
        <ele>1586.05</ele>
        <time>2025-01-26T10:08:40Z</time>
      </trkpt>
      <trkpt lat="45.884194560348988" lon="7.926157638430595">
        <ele>1585.9300000000001</ele>
        <time>2025-01-26T10:08:55Z</time>
      </trkpt>
      <trkpt lat="45.884237978607416" lon="7.925998717546463">
        <ele>1586.8900000000001</ele>
        <time>2025-01-26T10:09:07Z</time>
      </trkpt>
      <trkpt lat="45.884243845939636" lon="7.925872653722763">
        <ele>1586.5999999999999</ele>
        <time>2025-01-26T10:09:18Z</time>
      </trkpt>
      <trkpt lat="45.884212078526616" lon="7.925756732001901">
        <ele>1587.9200000000001</ele>
        <time>2025-01-26T10:09:34Z</time>
      </trkpt>
      <trkpt lat="45.88419271633029" lon="7.925645923241973">
        <ele>1590.1700000000001</ele>
        <time>2025-01-26T10:09:52Z</time>
      </trkpt>
      <trkpt lat="45.88412775658071" lon="7.925527654588223">
        <ele>1591.23</ele>
        <time>2025-01-26T10:10:07Z</time>
      </trkpt>
      <trkpt lat="45.884133959189057" lon="7.925420701503754">
        <ele>1592.3499999999999</ele>
        <time>2025-01-26T10:10:27Z</time>
      </trkpt>
      <trkpt lat="45.884206462651491" lon="7.925271168351173">
        <ele>1593.51</ele>
        <time>2025-01-26T10:10:43Z</time>
      </trkpt>
      <trkpt lat="45.884273769333959" lon="7.925120461732149">
        <ele>1594.4400000000001</ele>
        <time>2025-01-26T10:10:57Z</time>
      </trkpt>
      <trkpt lat="45.884330598637462" lon="7.924965145066381">
        <ele>1594.0699999999999</ele>
        <time>2025-01-26T10:11:09Z</time>
      </trkpt>
      <trkpt lat="45.884367562830448" lon="7.924812845885754">
        <ele>1594.5899999999999</ele>
        <time>2025-01-26T10:11:23Z</time>
      </trkpt>
      <trkpt lat="45.884450795128942" lon="7.924744449555874">
        <ele>1594.54</ele>
        <time>2025-01-26T10:11:41Z</time>
      </trkpt>
      <trkpt lat="45.884509216994047" lon="7.924625845625997">
        <ele>1595.01</ele>
        <time>2025-01-26T10:11:52Z</time>
      </trkpt>
      <trkpt lat="45.884573422372341" lon="7.92451947927475">
        <ele>1595.1500000000001</ele>
        <time>2025-01-26T10:12:23Z</time>
      </trkpt>
      <trkpt lat="45.884611560031772" lon="7.924384949728847">
        <ele>1595.9400000000001</ele>
        <time>2025-01-26T10:12:36Z</time>
      </trkpt>
      <trkpt lat="45.884659085422754" lon="7.924269111827016">
        <ele>1597.4200000000001</ele>
        <time>2025-01-26T10:12:51Z</time>
      </trkpt>
      <trkpt lat="45.884737456217408" lon="7.924182694405317">
        <ele>1598.0699999999999</ele>
        <time>2025-01-26T10:13:04Z</time>
      </trkpt>
      <trkpt lat="45.884809959679842" lon="7.924092169851065">
        <ele>1598.22</ele>
        <time>2025-01-26T10:13:15Z</time>
      </trkpt>
      <trkpt lat="45.884872572496533" lon="7.923996364697814">
        <ele>1598.28</ele>
        <time>2025-01-26T10:13:30Z</time>
      </trkpt>
      <trkpt lat="45.884946752339602" lon="7.923911120742559">
        <ele>1599.0699999999999</ele>
        <time>2025-01-26T10:13:46Z</time>
      </trkpt>
      <trkpt lat="45.885009197518229" lon="7.923770975321531">
        <ele>1599.1900000000001</ele>
        <time>2025-01-26T10:14:03Z</time>
      </trkpt>
      <trkpt lat="45.885054962709546" lon="7.923666872084141">
        <ele>1599.5</ele>
        <time>2025-01-26T10:14:18Z</time>
      </trkpt>
      <trkpt lat="45.885132243856788" lon="7.923517590388656">
        <ele>1601.3199999999999</ele>
        <time>2025-01-26T10:14:35Z</time>
      </trkpt>
      <trkpt lat="45.885204914957285" lon="7.923391945660114">
        <ele>1602.5899999999999</ele>
        <time>2025-01-26T10:14:49Z</time>
      </trkpt>
      <trkpt lat="45.885279765352607" lon="7.923311730846763">
        <ele>1603.78</ele>
        <time>2025-01-26T10:15:02Z</time>
      </trkpt>
      <trkpt lat="45.885329302400351" lon="7.923198323696852">
        <ele>1604.6800000000001</ele>
        <time>2025-01-26T10:15:18Z</time>
      </trkpt>
      <trkpt lat="45.885376073420048" lon="7.923096232116222">
        <ele>1606.5799999999999</ele>
        <time>2025-01-26T10:15:38Z</time>
      </trkpt>
      <trkpt lat="45.885414546355605" lon="7.922981986775994">
        <ele>1608.05</ele>
        <time>2025-01-26T10:16:01Z</time>
      </trkpt>
      <trkpt lat="45.885445643216372" lon="7.922845026478171">
        <ele>1608.48</ele>
        <time>2025-01-26T10:16:16Z</time>
      </trkpt>
      <trkpt lat="45.885430304333568" lon="7.922689458355308">
        <ele>1609.72</ele>
        <time>2025-01-26T10:16:35Z</time>
      </trkpt>
      <trkpt lat="45.885448744520545" lon="7.922519138082862">
        <ele>1610.0899999999999</ele>
        <time>2025-01-26T10:16:54Z</time>
      </trkpt>
      <trkpt lat="45.885509932413697" lon="7.922396929934621">
        <ele>1610.6800000000001</ele>
        <time>2025-01-26T10:17:17Z</time>
      </trkpt>
      <trkpt lat="45.885551339015365" lon="7.922285869717598">
        <ele>1611.0799999999999</ele>
        <time>2025-01-26T10:17:46Z</time>
      </trkpt>
      <trkpt lat="45.885589392855763" lon="7.922147903591394">
        <ele>1611.03</ele>
        <time>2025-01-26T10:18:06Z</time>
      </trkpt>
      <trkpt lat="45.885627362877131" lon="7.922002729028463">
        <ele>1612.1300000000001</ele>
        <time>2025-01-26T10:18:22Z</time>
      </trkpt>
      <trkpt lat="45.885647814720869" lon="7.921877503395081">
        <ele>1614.49</ele>
        <time>2025-01-26T10:18:43Z</time>
      </trkpt>
      <trkpt lat="45.885689305141568" lon="7.921777004376054">
        <ele>1615.8199999999999</ele>
        <time>2025-01-26T10:19:01Z</time>
      </trkpt>
      <trkpt lat="45.885739177465439" lon="7.921685138717294">
        <ele>1618.79</ele>
        <time>2025-01-26T10:19:23Z</time>
      </trkpt>
      <trkpt lat="45.885816542431712" lon="7.921567792072892">
        <ele>1620.29</ele>
        <time>2025-01-26T10:19:40Z</time>
      </trkpt>
      <trkpt lat="45.885888542979956" lon="7.92144700884819">
        <ele>1622.0999999999999</ele>
        <time>2025-01-26T10:20:00Z</time>
      </trkpt>
      <trkpt lat="45.885914694517851" lon="7.921331003308296">
        <ele>1624.21</ele>
        <time>2025-01-26T10:20:18Z</time>
      </trkpt>
      <trkpt lat="45.885988958179951" lon="7.921274090185762">
        <ele>1625.27</ele>
        <time>2025-01-26T10:20:27Z</time>
      </trkpt>
      <trkpt lat="45.886057773604989" lon="7.921226732432842">
        <ele>1626.5799999999999</ele>
        <time>2025-01-26T10:20:43Z</time>
      </trkpt>
      <trkpt lat="45.886101862415671" lon="7.921128664165735">
        <ele>1627.98</ele>
        <time>2025-01-26T10:20:55Z</time>
      </trkpt>
      <trkpt lat="45.886112172156572" lon="7.921004444360733">
        <ele>1628.29</ele>
        <time>2025-01-26T10:21:08Z</time>
      </trkpt>
      <trkpt lat="45.886129522696137" lon="7.920885756611824">
        <ele>1629.21</ele>
        <time>2025-01-26T10:21:21Z</time>
      </trkpt>
      <trkpt lat="45.886163972318172" lon="7.920797914266586">
        <ele>1630.0699999999999</ele>
        <time>2025-01-26T10:21:36Z</time>
      </trkpt>
      <trkpt lat="45.886175623163581" lon="7.920664306730032">
        <ele>1629.76</ele>
        <time>2025-01-26T10:21:50Z</time>
      </trkpt>
      <trkpt lat="45.886213341727853" lon="7.920550899580121">
        <ele>1630.9100000000001</ele>
        <time>2025-01-26T10:22:02Z</time>
      </trkpt>
      <trkpt lat="45.886177802458405" lon="7.920471020042896">
        <ele>1631.6199999999999</ele>
        <time>2025-01-26T10:22:31Z</time>
      </trkpt>
      <trkpt lat="45.886177383363247" lon="7.92033196426928">
        <ele>1631.3399999999999</ele>
        <time>2025-01-26T10:22:42Z</time>
      </trkpt>
      <trkpt lat="45.886222058907151" lon="7.920188801363111">
        <ele>1631.96</ele>
        <time>2025-01-26T10:22:55Z</time>
      </trkpt>
      <trkpt lat="45.886277128010988" lon="7.920090397819877">
        <ele>1630.8099999999999</ele>
        <time>2025-01-26T10:23:04Z</time>
      </trkpt>
      <trkpt lat="45.886356504634023" lon="7.919987132772803">
        <ele>1631.3299999999999</ele>
        <time>2025-01-26T10:23:18Z</time>
      </trkpt>
      <trkpt lat="45.886442167684436" lon="7.919875988736749">
        <ele>1631.2</ele>
        <time>2025-01-26T10:23:35Z</time>
      </trkpt>
      <trkpt lat="45.886549791321158" lon="7.919799713417888">
        <ele>1632.3199999999999</ele>
        <time>2025-01-26T10:23:55Z</time>
      </trkpt>
      <trkpt lat="45.886627240106463" lon="7.9197714664042">
        <ele>1634.28</ele>
        <time>2025-01-26T10:24:15Z</time>
      </trkpt>
      <trkpt lat="45.88671064004302" lon="7.919686976820231">
        <ele>1635.3199999999999</ele>
        <time>2025-01-26T10:24:34Z</time>
      </trkpt>
      <trkpt lat="45.886761518195271" lon="7.919595194980502">
        <ele>1636.5</ele>
        <time>2025-01-26T10:24:58Z</time>
      </trkpt>
      <trkpt lat="45.886848354712129" lon="7.919488325715065">
        <ele>1638.1199999999999</ele>
        <time>2025-01-26T10:25:10Z</time>
      </trkpt>
      <trkpt lat="45.886917756870389" lon="7.91940744034946">
        <ele>1639.27</ele>
        <time>2025-01-26T10:25:19Z</time>
      </trkpt>
      <trkpt lat="45.886932844296098" lon="7.919304007664323">
        <ele>1640.22</ele>
        <time>2025-01-26T10:25:36Z</time>
      </trkpt>
      <trkpt lat="45.886998055502772" lon="7.919261930510402">
        <ele>1640.78</ele>
        <time>2025-01-26T10:25:56Z</time>
      </trkpt>
      <trkpt lat="45.88709469884634" lon="7.919234437867999">
        <ele>1641.4400000000001</ele>
        <time>2025-01-26T10:26:14Z</time>
      </trkpt>
      <trkpt lat="45.887151444330812" lon="7.91911818087101">
        <ele>1642.6800000000001</ele>
        <time>2025-01-26T10:26:26Z</time>
      </trkpt>
      <trkpt lat="45.887204082682729" lon="7.919045342132449">
        <ele>1644.5</ele>
        <time>2025-01-26T10:26:42Z</time>
      </trkpt>
      <trkpt lat="45.887265438213944" lon="7.918970575556159">
        <ele>1645.8900000000001</ele>
        <time>2025-01-26T10:26:51Z</time>
      </trkpt>
      <trkpt lat="45.887286392971873" lon="7.918851552531123">
        <ele>1648.0799999999999</ele>
        <time>2025-01-26T10:27:14Z</time>
      </trkpt>
      <trkpt lat="45.887358142063022" lon="7.918764883652329">
        <ele>1649.9000000000001</ele>
        <time>2025-01-26T10:28:10Z</time>
      </trkpt>
      <trkpt lat="45.88740449398756" lon="7.918672095984221">
        <ele>1650.8599999999999</ele>
        <time>2025-01-26T10:28:24Z</time>
      </trkpt>
      <trkpt lat="45.887475572526455" lon="7.918561119586229">
        <ele>1652.8800000000001</ele>
        <time>2025-01-26T10:28:42Z</time>
      </trkpt>
      <trkpt lat="45.887547489255667" lon="7.918500853702426">
        <ele>1655.24</ele>
        <time>2025-01-26T10:29:01Z</time>
      </trkpt>
      <trkpt lat="45.887559475377202" lon="7.918374035507441">
        <ele>1657.01</ele>
        <time>2025-01-26T10:29:23Z</time>
      </trkpt>
      <trkpt lat="45.887629128992558" lon="7.918284516781569">
        <ele>1658.1199999999999</ele>
        <time>2025-01-26T10:29:49Z</time>
      </trkpt>
      <trkpt lat="45.887700039893389" lon="7.918198266997933">
        <ele>1659.1700000000001</ele>
        <time>2025-01-26T10:30:05Z</time>
      </trkpt>
      <trkpt lat="45.887752175331116" lon="7.918119728565216">
        <ele>1660.8399999999999</ele>
        <time>2025-01-26T10:30:27Z</time>
      </trkpt>
      <trkpt lat="45.887827528640628" lon="7.91801093146205">
        <ele>1661.6500000000001</ele>
        <time>2025-01-26T10:30:39Z</time>
      </trkpt>
      <trkpt lat="45.887899613007903" lon="7.917891321703792">
        <ele>1662.02</ele>
        <time>2025-01-26T10:30:55Z</time>
      </trkpt>
      <trkpt lat="45.887941941618919" lon="7.917772214859724">
        <ele>1662.5599999999999</ele>
        <time>2025-01-26T10:31:11Z</time>
      </trkpt>
      <trkpt lat="45.888023497536778" lon="7.917691078037024">
        <ele>1664.72</ele>
        <time>2025-01-26T10:31:30Z</time>
      </trkpt>
      <trkpt lat="45.888058869168162" lon="7.917536934837699">
        <ele>1665.8599999999999</ele>
        <time>2025-01-26T10:31:47Z</time>
      </trkpt>
      <trkpt lat="45.888116369023919" lon="7.91742361150682">
        <ele>1666.6099999999999</ele>
        <time>2025-01-26T10:32:06Z</time>
      </trkpt>
      <trkpt lat="45.888156099244952" lon="7.917326968163252">
        <ele>1667.5</ele>
        <time>2025-01-26T10:32:27Z</time>
      </trkpt>
      <trkpt lat="45.888147549703717" lon="7.917217751964927">
        <ele>1669.4400000000001</ele>
        <time>2025-01-26T10:32:47Z</time>
      </trkpt>
      <trkpt lat="45.888199685141444" lon="7.917087413370609">
        <ele>1670.3900000000001</ele>
        <time>2025-01-26T10:33:02Z</time>
      </trkpt>
      <trkpt lat="45.888144532218575" lon="7.916958834975958">
        <ele>1672.0799999999999</ele>
        <time>2025-01-26T10:33:20Z</time>
      </trkpt>
      <trkpt lat="45.888113351538777" lon="7.916849786415696">
        <ele>1674.05</ele>
        <time>2025-01-26T10:33:38Z</time>
      </trkpt>
      <trkpt lat="45.888156518340111" lon="7.916749538853765">
        <ele>1675.3199999999999</ele>
        <time>2025-01-26T10:34:01Z</time>
      </trkpt>
      <trkpt lat="45.888245366513729" lon="7.916662450879812">
        <ele>1676.76</ele>
        <time>2025-01-26T10:34:21Z</time>
      </trkpt>
      <trkpt lat="45.888324324041605" lon="7.916573015972972">
        <ele>1678.04</ele>
        <time>2025-01-26T10:34:38Z</time>
      </trkpt>
      <trkpt lat="45.888402359560132" lon="7.916461704298854">
        <ele>1679.4400000000001</ele>
        <time>2025-01-26T10:34:57Z</time>
      </trkpt>
      <trkpt lat="45.888399928808212" lon="7.916366821154952">
        <ele>1681.3099999999999</ele>
        <time>2025-01-26T10:35:17Z</time>
      </trkpt>
      <trkpt lat="45.888415016233921" lon="7.916267830878496">
        <ele>1681.95</ele>
        <time>2025-01-26T10:35:35Z</time>
      </trkpt>
      <trkpt lat="45.888495817780495" lon="7.91616003960371">
        <ele>1682.74</ele>
        <time>2025-01-26T10:35:51Z</time>
      </trkpt>
      <trkpt lat="45.888527501374483" lon="7.916099857538939">
        <ele>1683.53</ele>
        <time>2025-01-26T10:36:25Z</time>
      </trkpt>
      <trkpt lat="45.888570584356785" lon="7.915987204760313">
        <ele>1684.6099999999999</ele>
        <time>2025-01-26T10:36:44Z</time>
      </trkpt>
      <trkpt lat="45.88852733373642" lon="7.915902715176344">
        <ele>1688.26</ele>
        <time>2025-01-26T10:37:03Z</time>
      </trkpt>
      <trkpt lat="45.888603860512376" lon="7.915807832032442">
        <ele>1690.73</ele>
        <time>2025-01-26T10:37:24Z</time>
      </trkpt>
      <trkpt lat="45.888679716736078" lon="7.915708003565669">
        <ele>1692.5799999999999</ele>
        <time>2025-01-26T10:37:47Z</time>
      </trkpt>
      <trkpt lat="45.888733863830566" lon="7.915602643042803">
        <ele>1693.53</ele>
        <time>2025-01-26T10:38:03Z</time>
      </trkpt>
      <trkpt lat="45.88877166621387" lon="7.915481859818101">
        <ele>1695.47</ele>
        <time>2025-01-26T10:38:22Z</time>
      </trkpt>
      <trkpt lat="45.888803098350763" lon="7.915384043008089">
        <ele>1697.3099999999999</ele>
        <time>2025-01-26T10:38:42Z</time>
      </trkpt>
      <trkpt lat="45.888830255717039" lon="7.915289830416441">
        <ele>1698.49</ele>
        <time>2025-01-26T10:39:01Z</time>
      </trkpt>
      <trkpt lat="45.888915751129389" lon="7.915197210386396">
        <ele>1700.6400000000001</ele>
        <time>2025-01-26T10:39:25Z</time>
      </trkpt>
      <trkpt lat="45.888989344239235" lon="7.915078774094582">
        <ele>1701.6400000000001</ele>
        <time>2025-01-26T10:39:39Z</time>
      </trkpt>
      <trkpt lat="45.889030247926712" lon="7.914961846545339">
        <ele>1702.0999999999999</ele>
        <time>2025-01-26T10:39:50Z</time>
      </trkpt>
      <trkpt lat="45.889066122472286" lon="7.914867885410786">
        <ele>1703.46</ele>
        <time>2025-01-26T10:40:04Z</time>
      </trkpt>
      <trkpt lat="45.889082551002502" lon="7.914712736383081">
        <ele>1704.8199999999999</ele>
        <time>2025-01-26T10:40:23Z</time>
      </trkpt>
      <trkpt lat="45.889127729460597" lon="7.914603939279914">
        <ele>1706.05</ele>
        <time>2025-01-26T10:40:44Z</time>
      </trkpt>
      <trkpt lat="45.889162430539727" lon="7.914494555443525">
        <ele>1707.9100000000001</ele>
        <time>2025-01-26T10:40:59Z</time>
      </trkpt>
      <trkpt lat="45.889164442196488" lon="7.914364216849208">
        <ele>1708.8599999999999</ele>
        <time>2025-01-26T10:41:31Z</time>
      </trkpt>
      <trkpt lat="45.889228982850909" lon="7.914343178272247">
        <ele>1708.8</ele>
        <time>2025-01-26T10:42:04Z</time>
      </trkpt>
      <trkpt lat="45.889221355319023" lon="7.914328929036856">
        <ele>1710.8599999999999</ele>
        <time>2025-01-26T10:43:50Z</time>
      </trkpt>
      <trkpt lat="45.889221103861928" lon="7.914323480799794">
        <ele>1710.8599999999999</ele>
        <time>2025-01-26T10:45:01Z</time>
      </trkpt>
      <trkpt lat="45.889287237077951" lon="7.914323313161731">
        <ele>1711.04</ele>
        <time>2025-01-26T10:45:39Z</time>
      </trkpt>
      <trkpt lat="45.889310790225863" lon="7.914251564070582">
        <ele>1711.28</ele>
        <time>2025-01-26T10:46:16Z</time>
      </trkpt>
      <trkpt lat="45.889332918450236" lon="7.914171097800136">
        <ele>1714.23</ele>
        <time>2025-01-26T10:47:31Z</time>
      </trkpt>
      <trkpt lat="45.889269635081291" lon="7.914123488590121">
        <ele>1716.72</ele>
        <time>2025-01-26T10:48:17Z</time>
      </trkpt>
      <trkpt lat="45.889335935935378" lon="7.914057858288288">
        <ele>1720.4300000000001</ele>
        <time>2025-01-26T10:48:44Z</time>
      </trkpt>
      <trkpt lat="45.88943718932569" lon="7.913995748385787">
        <ele>1721.9400000000001</ele>
        <time>2025-01-26T10:48:57Z</time>
      </trkpt>
      <trkpt lat="45.889462921768427" lon="7.913920478895307">
        <ele>1724.1900000000001</ele>
        <time>2025-01-26T10:49:13Z</time>
      </trkpt>
      <trkpt lat="45.889514554291964" lon="7.913831295445561">
        <ele>1726.3099999999999</ele>
        <time>2025-01-26T10:49:32Z</time>
      </trkpt>
      <trkpt lat="45.889533162117004" lon="7.913710847496986">
        <ele>1728.74</ele>
        <time>2025-01-26T10:49:55Z</time>
      </trkpt>
      <trkpt lat="45.889460071921349" lon="7.913715122267604">
        <ele>1732.45</ele>
        <time>2025-01-26T10:50:31Z</time>
      </trkpt>
      <trkpt lat="45.889364015311003" lon="7.913682097569108">
        <ele>1735.1400000000001</ele>
        <time>2025-01-26T10:50:56Z</time>
      </trkpt>
      <trkpt lat="45.889289164915681" lon="7.913654604926705">
        <ele>1737.9100000000001</ele>
        <time>2025-01-26T10:51:25Z</time>
      </trkpt>
      <trkpt lat="45.88926418684423" lon="7.913599535822868">
        <ele>1739.4000000000001</ele>
        <time>2025-01-26T10:52:09Z</time>
      </trkpt>
      <trkpt lat="45.889192186295986" lon="7.913523092865944">
        <ele>1743.0599999999999</ele>
        <time>2025-01-26T10:52:31Z</time>
      </trkpt>
      <trkpt lat="45.889116497710347" lon="7.913442123681307">
        <ele>1746.3399999999999</ele>
        <time>2025-01-26T10:52:50Z</time>
      </trkpt>
      <trkpt lat="45.889065284281969" lon="7.91335579007864">
        <ele>1749.78</ele>
        <time>2025-01-26T10:53:12Z</time>
      </trkpt>
      <trkpt lat="45.889007700607181" lon="7.913284208625555">
        <ele>1752.74</ele>
        <time>2025-01-26T10:53:33Z</time>
      </trkpt>
      <trkpt lat="45.888981046155095" lon="7.913251351565123">
        <ele>1754.8499999999999</ele>
        <time>2025-01-26T10:54:09Z</time>
      </trkpt>
      <trkpt lat="45.889005102217197" lon="7.9131402913481">
        <ele>1758.8599999999999</ele>
        <time>2025-01-26T10:54:34Z</time>
      </trkpt>
      <trkpt lat="45.888941818848252" lon="7.913086479529738">
        <ele>1761.8699999999999</ele>
        <time>2025-01-26T10:54:55Z</time>
      </trkpt>
      <trkpt lat="45.888960175216198" lon="7.913006851449609">
        <ele>1764.97</ele>
        <time>2025-01-26T10:55:19Z</time>
      </trkpt>
      <trkpt lat="45.888935197144747" lon="7.912952788174152">
        <ele>1767.28</ele>
        <time>2025-01-26T10:55:48Z</time>
      </trkpt>
      <trkpt lat="45.888881720602512" lon="7.912875255569816">
        <ele>1770.22</ele>
        <time>2025-01-26T10:56:18Z</time>
      </trkpt>
      <trkpt lat="45.888882223516703" lon="7.912827143445611">
        <ele>1772.8099999999999</ele>
        <time>2025-01-26T10:57:16Z</time>
      </trkpt>
      <trkpt lat="45.888882223516703" lon="7.912810044363141">
        <ele>1773.5699999999999</ele>
        <time>2025-01-26T10:58:12Z</time>
      </trkpt>
      <trkpt lat="45.888850372284651" lon="7.912723459303379">
        <ele>1776.47</ele>
        <time>2025-01-26T10:58:44Z</time>
      </trkpt>
      <trkpt lat="45.888797231018543" lon="7.912663863971829">
        <ele>1778.72</ele>
        <time>2025-01-26T10:59:00Z</time>
      </trkpt>
      <trkpt lat="45.888886917382479" lon="7.912622960284352">
        <ele>1781.3199999999999</ele>
        <time>2025-01-26T10:59:24Z</time>
      </trkpt>
      <trkpt lat="45.888819359242916" lon="7.912520030513406">
        <ele>1784.6199999999999</ele>
        <time>2025-01-26T10:59:54Z</time>
      </trkpt>
      <trkpt lat="45.888793542981148" lon="7.912430679425597">
        <ele>1787.1400000000001</ele>
        <time>2025-01-26T11:00:19Z</time>
      </trkpt>
      <trkpt lat="45.888803098350763" lon="7.91235214099288">
        <ele>1790.73</ele>
        <time>2025-01-26T11:01:01Z</time>
      </trkpt>
      <trkpt lat="45.888865375891328" lon="7.912285504862666">
        <ele>1793.76</ele>
        <time>2025-01-26T11:01:31Z</time>
      </trkpt>
      <trkpt lat="45.888828579336405" lon="7.912199925631285">
        <ele>1795.49</ele>
        <time>2025-01-26T11:01:57Z</time>
      </trkpt>
      <trkpt lat="45.888750292360783" lon="7.912106718868017">
        <ele>1797.79</ele>
        <time>2025-01-26T11:02:23Z</time>
      </trkpt>
      <trkpt lat="45.888678627088666" lon="7.912025917321444">
        <ele>1800.3900000000001</ele>
        <time>2025-01-26T11:02:49Z</time>
      </trkpt>
      <trkpt lat="45.888762529939413" lon="7.911978643387556">
        <ele>1803.21</ele>
        <time>2025-01-26T11:03:16Z</time>
      </trkpt>
      <trkpt lat="45.88872036896646" lon="7.911916701123118">
        <ele>1804.97</ele>
        <time>2025-01-26T11:03:47Z</time>
      </trkpt>
      <trkpt lat="45.888690948486328" lon="7.911835061386228">
        <ele>1808.4100000000001</ele>
        <time>2025-01-26T11:04:29Z</time>
      </trkpt>
      <trkpt lat="45.888659432530403" lon="7.911741686984897">
        <ele>1811.7</ele>
        <time>2025-01-26T11:05:16Z</time>
      </trkpt>
      <trkpt lat="45.88867493905127" lon="7.911681169643998">
        <ele>1814.26</ele>
        <time>2025-01-26T11:05:58Z</time>
      </trkpt>
      <trkpt lat="45.888686254620552" lon="7.911611180752516">
        <ele>1820.7</ele>
        <time>2025-01-26T11:07:53Z</time>
      </trkpt>
      <trkpt lat="45.888735121116042" lon="7.911580838263035">
        <ele>1823.3599999999999</ele>
        <time>2025-01-26T11:08:17Z</time>
      </trkpt>
      <trkpt lat="45.888706287369132" lon="7.911488218232989">
        <ele>1828.01</ele>
        <time>2025-01-26T11:08:44Z</time>
      </trkpt>
      <trkpt lat="45.888687008991838" lon="7.911431975662708">
        <ele>1830.27</ele>
        <time>2025-01-26T11:09:16Z</time>
      </trkpt>
      <trkpt lat="45.888678040355444" lon="7.911394005641341">
        <ele>1833.04</ele>
        <time>2025-01-26T11:09:55Z</time>
      </trkpt>
      <trkpt lat="45.888625150546432" lon="7.911292668431997">
        <ele>1835.5699999999999</ele>
        <time>2025-01-26T11:10:21Z</time>
      </trkpt>
      <trkpt lat="45.888538314029574" lon="7.911213962361217">
        <ele>1841.2</ele>
        <time>2025-01-26T11:10:45Z</time>
      </trkpt>
      <trkpt lat="45.888534961268306" lon="7.911137184128165">
        <ele>1842.6500000000001</ele>
        <time>2025-01-26T11:11:16Z</time>
      </trkpt>
      <trkpt lat="45.888541666790843" lon="7.911106925457716">
        <ele>1841.0899999999999</ele>
        <time>2025-01-26T11:14:52Z</time>
      </trkpt>
      <trkpt lat="45.888539822772145" lon="7.911007599905133">
        <ele>1843.7</ele>
        <time>2025-01-26T11:15:18Z</time>
      </trkpt>
      <trkpt lat="45.888561448082328" lon="7.910829484462738">
        <ele>1846.3599999999999</ele>
        <time>2025-01-26T11:16:28Z</time>
      </trkpt>
      <trkpt lat="45.888573853299022" lon="7.910686489194632">
        <ele>1846.0999999999999</ele>
        <time>2025-01-26T11:16:38Z</time>
      </trkpt>
      <trkpt lat="45.888582151383162" lon="7.910543074831367">
        <ele>1846.0599999999999</ele>
        <time>2025-01-26T11:16:49Z</time>
      </trkpt>
      <trkpt lat="45.888634538277984" lon="7.910455064848065">
        <ele>1846.04</ele>
        <time>2025-01-26T11:17:10Z</time>
      </trkpt>
      <trkpt lat="45.888624312356114" lon="7.910311231389642">
        <ele>1846.77</ele>
        <time>2025-01-26T11:17:26Z</time>
      </trkpt>
      <trkpt lat="45.888605453073978" lon="7.910178126767278">
        <ele>1847.27</ele>
        <time>2025-01-26T11:17:40Z</time>
      </trkpt>
      <trkpt lat="45.88861090131104" lon="7.910042926669121">
        <ele>1846.26</ele>
        <time>2025-01-26T11:17:52Z</time>
      </trkpt>
      <trkpt lat="45.888632610440254" lon="7.909946031868458">
        <ele>1846.3800000000001</ele>
        <time>2025-01-26T11:18:29Z</time>
      </trkpt>
      <trkpt lat="45.888648871332407" lon="7.909929938614368">
        <ele>1846</ele>
        <time>2025-01-26T11:39:01Z</time>
      </trkpt>
      <trkpt lat="45.888636382296681" lon="7.909951228648424">
        <ele>1842.5</ele>
        <time>2025-01-26T11:49:31Z</time>
      </trkpt>
      <trkpt lat="45.888600088655949" lon="7.910005459561944">
        <ele>1842.76</ele>
        <time>2025-01-26T11:50:10Z</time>
      </trkpt>
      <trkpt lat="45.888593718409538" lon="7.91012205183506">
        <ele>1843.4300000000001</ele>
        <time>2025-01-26T11:51:17Z</time>
      </trkpt>
      <trkpt lat="45.888629760593176" lon="7.910254737362266">
        <ele>1843.97</ele>
        <time>2025-01-26T11:51:41Z</time>
      </trkpt>
      <trkpt lat="45.888623725622892" lon="7.910389769822359">
        <ele>1843.79</ele>
        <time>2025-01-26T11:51:51Z</time>
      </trkpt>
      <trkpt lat="45.8885801397264" lon="7.910507200285792">
        <ele>1842.28</ele>
        <time>2025-01-26T11:52:02Z</time>
      </trkpt>
      <trkpt lat="45.888576954603195" lon="7.910650530830026">
        <ele>1843.28</ele>
        <time>2025-01-26T11:52:15Z</time>
      </trkpt>
      <trkpt lat="45.888566812500358" lon="7.910793358460069">
        <ele>1842.73</ele>
        <time>2025-01-26T11:52:25Z</time>
      </trkpt>
      <trkpt lat="45.888558095321059" lon="7.910932749509811">
        <ele>1842.04</ele>
        <time>2025-01-26T11:52:38Z</time>
      </trkpt>
      <trkpt lat="45.888519119471312" lon="7.911061244085431">
        <ele>1839.6800000000001</ele>
        <time>2025-01-26T11:52:49Z</time>
      </trkpt>
      <trkpt lat="45.888522388413548" lon="7.911202982068062">
        <ele>1837.3800000000001</ele>
        <time>2025-01-26T11:53:07Z</time>
      </trkpt>
      <trkpt lat="45.888558682054281" lon="7.911298368126154">
        <ele>1833.1300000000001</ele>
        <time>2025-01-26T11:53:44Z</time>
      </trkpt>
      <trkpt lat="45.888624815270305" lon="7.911395011469722">
        <ele>1831.27</ele>
        <time>2025-01-26T11:54:32Z</time>
      </trkpt>
      <trkpt lat="45.88863143697381" lon="7.911499701440334">
        <ele>1826.8299999999999</ele>
        <time>2025-01-26T11:54:58Z</time>
      </trkpt>
      <trkpt lat="45.888628168031573" lon="7.911618473008275">
        <ele>1821.48</ele>
        <time>2025-01-26T11:55:37Z</time>
      </trkpt>
      <trkpt lat="45.88863629847765" lon="7.911645546555519">
        <ele>1818.5699999999999</ele>
        <time>2025-01-26T11:56:05Z</time>
      </trkpt>
      <trkpt lat="45.888650799170136" lon="7.911707740277052">
        <ele>1816.4000000000001</ele>
        <time>2025-01-26T11:57:03Z</time>
      </trkpt>
      <trkpt lat="45.888666808605194" lon="7.91175845079124">
        <ele>1813.3699999999999</ele>
        <time>2025-01-26T11:57:34Z</time>
      </trkpt>
      <trkpt lat="45.888559687882662" lon="7.911742692813277">
        <ele>1809.4000000000001</ele>
        <time>2025-01-26T11:57:47Z</time>
      </trkpt>
      <trkpt lat="45.888580223545432" lon="7.911863224580884">
        <ele>1805.3499999999999</ele>
        <time>2025-01-26T11:58:05Z</time>
      </trkpt>
      <trkpt lat="45.888622719794512" lon="7.911977469921112">
        <ele>1801.1600000000001</ele>
        <time>2025-01-26T11:58:25Z</time>
      </trkpt>
      <trkpt lat="45.888670161366463" lon="7.912072269245982">
        <ele>1797.95</ele>
        <time>2025-01-26T11:58:44Z</time>
      </trkpt>
      <trkpt lat="45.888636549934745" lon="7.912125745788217">
        <ele>1794.54</ele>
        <time>2025-01-26T11:58:59Z</time>
      </trkpt>
      <trkpt lat="45.888681393116713" lon="7.912232363596559">
        <ele>1792.22</ele>
        <time>2025-01-26T11:59:12Z</time>
      </trkpt>
      <trkpt lat="45.888704275712371" lon="7.912350967526436">
        <ele>1788.27</ele>
        <time>2025-01-26T11:59:32Z</time>
      </trkpt>
      <trkpt lat="45.888706035912037" lon="7.912469152361155">
        <ele>1784.0999999999999</ele>
        <time>2025-01-26T11:59:56Z</time>
      </trkpt>
      <trkpt lat="45.888734702020884" lon="7.912566382437944">
        <ele>1780.9300000000001</ele>
        <time>2025-01-26T12:00:18Z</time>
      </trkpt>
      <trkpt lat="45.888752639293671" lon="7.912683058530092">
        <ele>1777.71</ele>
        <time>2025-01-26T12:00:34Z</time>
      </trkpt>
      <trkpt lat="45.888750040903687" lon="7.912806188687682">
        <ele>1772.6500000000001</ele>
        <time>2025-01-26T12:00:53Z</time>
      </trkpt>
      <trkpt lat="45.888810139149427" lon="7.912895036861301">
        <ele>1768.9100000000001</ele>
        <time>2025-01-26T12:01:12Z</time>
      </trkpt>
      <trkpt lat="45.888857496902347" lon="7.913012132048607">
        <ele>1765.6400000000001</ele>
        <time>2025-01-26T12:01:32Z</time>
      </trkpt>
      <trkpt lat="45.888863112777472" lon="7.913121515884996">
        <ele>1761.3900000000001</ele>
        <time>2025-01-26T12:01:52Z</time>
      </trkpt>
      <trkpt lat="45.888872751966119" lon="7.913253698498011">
        <ele>1757.22</ele>
        <time>2025-01-26T12:02:10Z</time>
      </trkpt>
      <trkpt lat="45.888860682025552" lon="7.913368949666619">
        <ele>1752.6800000000001</ele>
        <time>2025-01-26T12:02:25Z</time>
      </trkpt>
      <trkpt lat="45.888961516320705" lon="7.913451595231891">
        <ele>1749.47</ele>
        <time>2025-01-26T12:02:38Z</time>
      </trkpt>
      <trkpt lat="45.889024380594492" lon="7.913560979068279">
        <ele>1745.3399999999999</ele>
        <time>2025-01-26T12:02:52Z</time>
      </trkpt>
      <trkpt lat="45.889104092493653" lon="7.913670362904668">
        <ele>1741.55</ele>
        <time>2025-01-26T12:03:06Z</time>
      </trkpt>
      <trkpt lat="45.889208782464266" lon="7.913748817518354">
        <ele>1737.5599999999999</ele>
        <time>2025-01-26T12:03:21Z</time>
      </trkpt>
      <trkpt lat="45.889305844902992" lon="7.913781758397818">
        <ele>1733.4000000000001</ele>
        <time>2025-01-26T12:03:36Z</time>
      </trkpt>
      <trkpt lat="45.889404751360416" lon="7.913817213848233">
        <ele>1730.0899999999999</ele>
        <time>2025-01-26T12:03:50Z</time>
      </trkpt>
      <trkpt lat="45.88939075358212" lon="7.913910336792469">
        <ele>1727.6500000000001</ele>
        <time>2025-01-26T12:04:05Z</time>
      </trkpt>
      <trkpt lat="45.889378935098648" lon="7.914035897701979">
        <ele>1725.3699999999999</ele>
        <time>2025-01-26T12:04:18Z</time>
      </trkpt>
      <trkpt lat="45.889331074431539" lon="7.914121225476265">
        <ele>1723.3599999999999</ele>
        <time>2025-01-26T12:04:31Z</time>
      </trkpt>
      <trkpt lat="45.889260582625866" lon="7.914122734218836">
        <ele>1720.8699999999999</ele>
        <time>2025-01-26T12:04:43Z</time>
      </trkpt>
      <trkpt lat="45.889309113845229" lon="7.914221053943038">
        <ele>1717.9400000000001</ele>
        <time>2025-01-26T12:04:58Z</time>
      </trkpt>
      <trkpt lat="45.889243818819523" lon="7.914304370060563">
        <ele>1714.47</ele>
        <time>2025-01-26T12:05:15Z</time>
      </trkpt>
      <trkpt lat="45.889227474108338" lon="7.914339741691947">
        <ele>1713.76</ele>
        <time>2025-01-26T12:05:37Z</time>
      </trkpt>
      <trkpt lat="45.889210123568773" lon="7.914366228505969">
        <ele>1713.75</ele>
        <time>2025-01-26T12:06:09Z</time>
      </trkpt>
      <trkpt lat="45.889162765815854" lon="7.914388608187437">
        <ele>1712.6500000000001</ele>
        <time>2025-01-26T12:07:09Z</time>
      </trkpt>
      <trkpt lat="45.889170644804835" lon="7.914479803293943">
        <ele>1711.0899999999999</ele>
        <time>2025-01-26T12:07:57Z</time>
      </trkpt>
      <trkpt lat="45.889138709753752" lon="7.914617182686925">
        <ele>1709.8699999999999</ele>
        <time>2025-01-26T12:08:08Z</time>
      </trkpt>
      <trkpt lat="45.889091016724706" lon="7.914750790223479">
        <ele>1708.7</ele>
        <time>2025-01-26T12:08:20Z</time>
      </trkpt>
      <trkpt lat="45.889039132744074" lon="7.914882134646177">
        <ele>1707.1900000000001</ele>
        <time>2025-01-26T12:08:30Z</time>
      </trkpt>
      <trkpt lat="45.889004683122039" lon="7.91501616127789">
        <ele>1705.9100000000001</ele>
        <time>2025-01-26T12:08:39Z</time>
      </trkpt>
      <trkpt lat="45.888971826061606" lon="7.915144907310605">
        <ele>1704.5799999999999</ele>
        <time>2025-01-26T12:08:48Z</time>
      </trkpt>
      <trkpt lat="45.888915499672294" lon="7.915248507633805">
        <ele>1703.99</ele>
        <time>2025-01-26T12:08:58Z</time>
      </trkpt>
      <trkpt lat="45.888867806643248" lon="7.915367949754">
        <ele>1701.6600000000001</ele>
        <time>2025-01-26T12:09:11Z</time>
      </trkpt>
      <trkpt lat="45.888834614306688" lon="7.915507256984711">
        <ele>1699.9300000000001</ele>
        <time>2025-01-26T12:09:23Z</time>
      </trkpt>
      <trkpt lat="45.888797314837575" lon="7.915646145120263">
        <ele>1697.7</ele>
        <time>2025-01-26T12:09:38Z</time>
      </trkpt>
      <trkpt lat="45.88872816413641" lon="7.915747398510575">
        <ele>1695.73</ele>
        <time>2025-01-26T12:09:48Z</time>
      </trkpt>
      <trkpt lat="45.888652810826898" lon="7.915835324674845">
        <ele>1695.05</ele>
        <time>2025-01-26T12:09:57Z</time>
      </trkpt>
      <trkpt lat="45.888606626540422" lon="7.91597387753427">
        <ele>1692.47</ele>
        <time>2025-01-26T12:10:07Z</time>
      </trkpt>
      <trkpt lat="45.88857720606029" lon="7.916097929701209">
        <ele>1689.3699999999999</ele>
        <time>2025-01-26T12:10:16Z</time>
      </trkpt>
      <trkpt lat="45.888545271009207" lon="7.916230531409383">
        <ele>1686.49</ele>
        <time>2025-01-26T12:10:25Z</time>
      </trkpt>
      <trkpt lat="45.888495231047273" lon="7.916330276057124">
        <ele>1685.95</ele>
        <time>2025-01-26T12:10:36Z</time>
      </trkpt>
      <trkpt lat="45.888428511098027" lon="7.916435720399022">
        <ele>1684.9400000000001</ele>
        <time>2025-01-26T12:10:47Z</time>
      </trkpt>
      <trkpt lat="45.888380566611886" lon="7.916556000709534">
        <ele>1683.25</ele>
        <time>2025-01-26T12:11:00Z</time>
      </trkpt>
      <trkpt lat="45.888314265757799" lon="7.916666809469461">
        <ele>1681.4000000000001</ele>
        <time>2025-01-26T12:11:15Z</time>
      </trkpt>
      <trkpt lat="45.888230865821242" lon="7.916730847209692">
        <ele>1680.1600000000001</ele>
        <time>2025-01-26T12:11:28Z</time>
      </trkpt>
      <trkpt lat="45.888167917728424" lon="7.916848277673125">
        <ele>1677.5699999999999</ele>
        <time>2025-01-26T12:13:55Z</time>
      </trkpt>
      <trkpt lat="45.888168420642614" lon="7.916979035362601">
        <ele>1676.26</ele>
        <time>2025-01-26T12:14:13Z</time>
      </trkpt>
      <trkpt lat="45.888175209984183" lon="7.917116079479456">
        <ele>1674.4400000000001</ele>
        <time>2025-01-26T12:14:28Z</time>
      </trkpt>
      <trkpt lat="45.888150483369827" lon="7.917246501892805">
        <ele>1673.95</ele>
        <time>2025-01-26T12:14:38Z</time>
      </trkpt>
      <trkpt lat="45.888166828081012" lon="7.917359154671431">
        <ele>1671.46</ele>
        <time>2025-01-26T12:14:51Z</time>
      </trkpt>
      <trkpt lat="45.888113435357809" lon="7.917481614276767">
        <ele>1670.49</ele>
        <time>2025-01-26T12:15:06Z</time>
      </trkpt>
      <trkpt lat="45.888077141717076" lon="7.917606001719832">
        <ele>1669.51</ele>
        <time>2025-01-26T12:15:18Z</time>
      </trkpt>
      <trkpt lat="45.888029616326094" lon="7.917722593992949">
        <ele>1669.3399999999999</ele>
        <time>2025-01-26T12:15:41Z</time>
      </trkpt>
      <trkpt lat="45.887955436483026" lon="7.917814459651709">
        <ele>1667.2</ele>
        <time>2025-01-26T12:15:50Z</time>
      </trkpt>
      <trkpt lat="45.887890979647636" lon="7.917913449928165">
        <ele>1666.3199999999999</ele>
        <time>2025-01-26T12:15:59Z</time>
      </trkpt>
      <trkpt lat="45.887825936079025" lon="7.918037166818976">
        <ele>1666.4000000000001</ele>
        <time>2025-01-26T12:16:12Z</time>
      </trkpt>
      <trkpt lat="45.887752259150147" lon="7.918128781020641">
        <ele>1665.6600000000001</ele>
        <time>2025-01-26T12:16:23Z</time>
      </trkpt>
      <trkpt lat="45.887661231681705" lon="7.918205643072724">
        <ele>1664.6400000000001</ele>
        <time>2025-01-26T12:16:43Z</time>
      </trkpt>
      <trkpt lat="45.887606078758836" lon="7.91831293143332">
        <ele>1663.0999999999999</ele>
        <time>2025-01-26T12:16:56Z</time>
      </trkpt>
      <trkpt lat="45.887570204213262" lon="7.918439330533147">
        <ele>1661.5699999999999</ele>
        <time>2025-01-26T12:17:10Z</time>
      </trkpt>
      <trkpt lat="45.887501640245318" lon="7.918534381315112">
        <ele>1660.47</ele>
        <time>2025-01-26T12:17:23Z</time>
      </trkpt>
      <trkpt lat="45.887417150661349" lon="7.918597245588899">
        <ele>1658.75</ele>
        <time>2025-01-26T12:17:36Z</time>
      </trkpt>
      <trkpt lat="45.887352945283055" lon="7.918695984408259">
        <ele>1657.2</ele>
        <time>2025-01-26T12:17:48Z</time>
      </trkpt>
      <trkpt lat="45.887291422113776" lon="7.918800925835967">
        <ele>1656.1700000000001</ele>
        <time>2025-01-26T12:18:01Z</time>
      </trkpt>
      <trkpt lat="45.887232413515449" lon="7.918910644948483">
        <ele>1654.3800000000001</ele>
        <time>2025-01-26T12:18:20Z</time>
      </trkpt>
      <trkpt lat="45.88717726059258" lon="7.919020783156157">
        <ele>1652.4400000000001</ele>
        <time>2025-01-26T12:18:36Z</time>
      </trkpt>
      <trkpt lat="45.887120682746172" lon="7.919125808402896">
        <ele>1650.9000000000001</ele>
        <time>2025-01-26T12:18:49Z</time>
      </trkpt>
      <trkpt lat="45.887074498459697" lon="7.919206107035279">
        <ele>1651.1900000000001</ele>
        <time>2025-01-26T12:21:27Z</time>
      </trkpt>
      <trkpt lat="45.887029152363539" lon="7.919317837804556">
        <ele>1650.72</ele>
        <time>2025-01-26T12:22:56Z</time>
      </trkpt>
      <trkpt lat="45.886931419372559" lon="7.919339379295707">
        <ele>1649.72</ele>
        <time>2025-01-26T12:23:04Z</time>
      </trkpt>
      <trkpt lat="45.886850198730826" lon="7.919391850009561">
        <ele>1649.22</ele>
        <time>2025-01-26T12:23:12Z</time>
      </trkpt>
      <trkpt lat="45.886784149333835" lon="7.919482961297035">
        <ele>1648.53</ele>
        <time>2025-01-26T12:23:20Z</time>
      </trkpt>
      <trkpt lat="45.886708460748196" lon="7.919560074806213">
        <ele>1646.5899999999999</ele>
        <time>2025-01-26T12:23:30Z</time>
      </trkpt>
      <trkpt lat="45.886661941185594" lon="7.919679684564471">
        <ele>1645.0799999999999</ele>
        <time>2025-01-26T12:23:38Z</time>
      </trkpt>
      <trkpt lat="45.886601842939854" lon="7.919775322079659">
        <ele>1643.8299999999999</ele>
        <time>2025-01-26T12:23:46Z</time>
      </trkpt>
      <trkpt lat="45.886506289243698" lon="7.919821590185165">
        <ele>1642.51</ele>
        <time>2025-01-26T12:23:57Z</time>
      </trkpt>
      <trkpt lat="45.88641257956624" lon="7.919862158596516">
        <ele>1640.8</ele>
        <time>2025-01-26T12:24:07Z</time>
      </trkpt>
      <trkpt lat="45.886330353096128" lon="7.919969530776143">
        <ele>1641.5799999999999</ele>
        <time>2025-01-26T12:24:21Z</time>
      </trkpt>
      <trkpt lat="45.886261370033026" lon="7.920093918219209">
        <ele>1640.5699999999999</ele>
        <time>2025-01-26T12:24:30Z</time>
      </trkpt>
      <trkpt lat="45.88618635199964" lon="7.920187041163445">
        <ele>1640.5599999999999</ele>
        <time>2025-01-26T12:24:40Z</time>
      </trkpt>
      <trkpt lat="45.886138658970594" lon="7.920320983976126">
        <ele>1641.7</ele>
        <time>2025-01-26T12:24:53Z</time>
      </trkpt>
      <trkpt lat="45.886109573766589" lon="7.920454675331712">
        <ele>1641.02</ele>
        <time>2025-01-26T12:25:03Z</time>
      </trkpt>
      <trkpt lat="45.886104544624686" lon="7.920599514618516">
        <ele>1641</ele>
        <time>2025-01-26T12:25:14Z</time>
      </trkpt>
      <trkpt lat="45.88609591126442" lon="7.920730020850897">
        <ele>1639.4300000000001</ele>
        <time>2025-01-26T12:25:26Z</time>
      </trkpt>
      <trkpt lat="45.886085936799645" lon="7.920860443264246">
        <ele>1638.77</ele>
        <time>2025-01-26T12:25:38Z</time>
      </trkpt>
      <trkpt lat="45.886038662865758" lon="7.920981561765075">
        <ele>1638.48</ele>
        <time>2025-01-26T12:25:49Z</time>
      </trkpt>
      <trkpt lat="45.886003794148564" lon="7.921117264777422">
        <ele>1637.52</ele>
        <time>2025-01-26T12:26:00Z</time>
      </trkpt>
      <trkpt lat="45.885995160788298" lon="7.921254560351372">
        <ele>1637.0799999999999</ele>
        <time>2025-01-26T12:26:11Z</time>
      </trkpt>
      <trkpt lat="45.885937493294477" lon="7.921333266422153">
        <ele>1635.4300000000001</ele>
        <time>2025-01-26T12:26:23Z</time>
      </trkpt>
      <trkpt lat="45.88585015386343" lon="7.921395041048527">
        <ele>1633.99</ele>
        <time>2025-01-26T12:26:37Z</time>
      </trkpt>
      <trkpt lat="45.88580715470016" lon="7.921505598351359">
        <ele>1632.48</ele>
        <time>2025-01-26T12:26:48Z</time>
      </trkpt>
      <trkpt lat="45.885776057839394" lon="7.921643229201436">
        <ele>1630.4000000000001</ele>
        <time>2025-01-26T12:27:00Z</time>
      </trkpt>
      <trkpt lat="45.885719982907176" lon="7.921762503683567">
        <ele>1629.26</ele>
        <time>2025-01-26T12:27:10Z</time>
      </trkpt>
      <trkpt lat="45.885656531900167" lon="7.921861577779055">
        <ele>1627.3299999999999</ele>
        <time>2025-01-26T12:27:22Z</time>
      </trkpt>
      <trkpt lat="45.885605905205011" lon="7.921982947736979">
        <ele>1625.3199999999999</ele>
        <time>2025-01-26T12:27:32Z</time>
      </trkpt>
      <trkpt lat="45.88556139729917" lon="7.92210909537971">
        <ele>1623.23</ele>
        <time>2025-01-26T12:27:44Z</time>
      </trkpt>
      <trkpt lat="45.885537173599005" lon="7.922245385125279">
        <ele>1622.0699999999999</ele>
        <time>2025-01-26T12:28:21Z</time>
      </trkpt>
      <trkpt lat="45.885500544682145" lon="7.922374047338963">
        <ele>1621.3900000000001</ele>
        <time>2025-01-26T12:28:40Z</time>
      </trkpt>
      <trkpt lat="45.885464837774634" lon="7.922493489459157">
        <ele>1621.49</ele>
        <time>2025-01-26T12:28:52Z</time>
      </trkpt>
      <trkpt lat="45.885423012077808" lon="7.922626594081521">
        <ele>1620.99</ele>
        <time>2025-01-26T12:29:05Z</time>
      </trkpt>
      <trkpt lat="45.885378336533904" lon="7.922748299315572">
        <ele>1620.5799999999999</ele>
        <time>2025-01-26T12:29:15Z</time>
      </trkpt>
      <trkpt lat="45.885377833619714" lon="7.922878721728921">
        <ele>1620.5699999999999</ele>
        <time>2025-01-26T12:29:29Z</time>
      </trkpt>
      <trkpt lat="45.885350592434406" lon="7.923010485246778">
        <ele>1619.0899999999999</ele>
        <time>2025-01-26T12:29:48Z</time>
      </trkpt>
      <trkpt lat="45.88534883223474" lon="7.923161191865802">
        <ele>1618.26</ele>
        <time>2025-01-26T12:30:17Z</time>
      </trkpt>
      <trkpt lat="45.885288985446095" lon="7.923279711976647">
        <ele>1616.73</ele>
        <time>2025-01-26T12:30:30Z</time>
      </trkpt>
      <trkpt lat="45.885226707905531" lon="7.923408122733235">
        <ele>1615.4300000000001</ele>
        <time>2025-01-26T12:30:42Z</time>
      </trkpt>
      <trkpt lat="45.885180775076151" lon="7.923520104959607">
        <ele>1614.96</ele>
        <time>2025-01-26T12:31:16Z</time>
      </trkpt>
      <trkpt lat="45.885113468393683" lon="7.923624040558934">
        <ele>1613.21</ele>
        <time>2025-01-26T12:31:28Z</time>
      </trkpt>
      <trkpt lat="45.885048592463136" lon="7.923715319484472">
        <ele>1612.0699999999999</ele>
        <time>2025-01-26T12:31:40Z</time>
      </trkpt>
      <trkpt lat="45.884991930797696" lon="7.923827553167939">
        <ele>1610.8099999999999</ele>
        <time>2025-01-26T12:31:54Z</time>
      </trkpt>
      <trkpt lat="45.884919259697199" lon="7.923934170976281">
        <ele>1610.72</ele>
        <time>2025-01-26T12:32:05Z</time>
      </trkpt>
      <trkpt lat="45.884845750406384" lon="7.924023354426026">
        <ele>1610.54</ele>
        <time>2025-01-26T12:32:16Z</time>
      </trkpt>
      <trkpt lat="45.884780958294868" lon="7.924120584502816">
        <ele>1609.8299999999999</ele>
        <time>2025-01-26T12:32:26Z</time>
      </trkpt>
      <trkpt lat="45.884718261659145" lon="7.924224436283112">
        <ele>1609.3399999999999</ele>
        <time>2025-01-26T12:32:36Z</time>
      </trkpt>
      <trkpt lat="45.884635867550969" lon="7.924302974715829">
        <ele>1609.5899999999999</ele>
        <time>2025-01-26T12:32:48Z</time>
      </trkpt>
      <trkpt lat="45.884571243077517" lon="7.924424260854721">
        <ele>1607.6800000000001</ele>
        <time>2025-01-26T12:33:00Z</time>
      </trkpt>
      <trkpt lat="45.884523214772344" lon="7.924554431810975">
        <ele>1606.5599999999999</ele>
        <time>2025-01-26T12:33:10Z</time>
      </trkpt>
      <trkpt lat="45.884472588077188" lon="7.924668425694108">
        <ele>1606.04</ele>
        <time>2025-01-26T12:33:20Z</time>
      </trkpt>
      <trkpt lat="45.884411735460162" lon="7.924784934148192">
        <ele>1605.3</ele>
        <time>2025-01-26T12:33:33Z</time>
      </trkpt>
      <trkpt lat="45.884334370493889" lon="7.924883170053363">
        <ele>1605.97</ele>
        <time>2025-01-26T12:33:43Z</time>
      </trkpt>
      <trkpt lat="45.884300591424108" lon="7.925014933571219">
        <ele>1605.4300000000001</ele>
        <time>2025-01-26T12:33:53Z</time>
      </trkpt>
      <trkpt lat="45.884261280298233" lon="7.925150552764535">
        <ele>1604.72</ele>
        <time>2025-01-26T12:34:03Z</time>
      </trkpt>
      <trkpt lat="45.884214257821441" lon="7.925279382616282">
        <ele>1604.3800000000001</ele>
        <time>2025-01-26T12:34:13Z</time>
      </trkpt>
      <trkpt lat="45.884187435731292" lon="7.925410978496075">
        <ele>1604.04</ele>
        <time>2025-01-26T12:34:23Z</time>
      </trkpt>
      <trkpt lat="45.884122727438807" lon="7.925516003742814">
        <ele>1602.23</ele>
        <time>2025-01-26T12:34:33Z</time>
      </trkpt>
      <trkpt lat="45.884132869541645" lon="7.925647599622607">
        <ele>1601.1300000000001</ele>
        <time>2025-01-26T12:34:43Z</time>
      </trkpt>
      <trkpt lat="45.884157847613096" lon="7.92577525600791">
        <ele>1600.1099999999999</ele>
        <time>2025-01-26T12:34:54Z</time>
      </trkpt>
      <trkpt lat="45.884142508730292" lon="7.925906265154481">
        <ele>1597.4100000000001</ele>
        <time>2025-01-26T12:35:08Z</time>
      </trkpt>
      <trkpt lat="45.884141167625785" lon="7.926039369776845">
        <ele>1597.3800000000001</ele>
        <time>2025-01-26T12:35:18Z</time>
      </trkpt>
      <trkpt lat="45.884148459881544" lon="7.926167026162148">
        <ele>1597.0599999999999</ele>
        <time>2025-01-26T12:35:29Z</time>
      </trkpt>
      <trkpt lat="45.884134965017438" lon="7.92630004696548">
        <ele>1596.76</ele>
        <time>2025-01-26T12:36:16Z</time>
      </trkpt>
      <trkpt lat="45.884127505123615" lon="7.926427703350782">
        <ele>1595.52</ele>
        <time>2025-01-26T12:36:25Z</time>
      </trkpt>
      <trkpt lat="45.884144017472863" lon="7.926553599536419">
        <ele>1593.5999999999999</ele>
        <time>2025-01-26T12:36:34Z</time>
      </trkpt>
      <trkpt lat="45.884165726602077" lon="7.92668703943491">
        <ele>1593.03</ele>
        <time>2025-01-26T12:36:48Z</time>
      </trkpt>
      <trkpt lat="45.884184250608087" lon="7.926812516525388">
        <ele>1592.5699999999999</ele>
        <time>2025-01-26T12:36:58Z</time>
      </trkpt>
      <trkpt lat="45.884204534813762" lon="7.926945621147752">
        <ele>1592.02</ele>
        <time>2025-01-26T12:37:11Z</time>
      </trkpt>
      <trkpt lat="45.884216018021107" lon="7.927072271704674">
        <ele>1591.1199999999999</ele>
        <time>2025-01-26T12:37:55Z</time>
      </trkpt>
      <trkpt lat="45.884203109890223" lon="7.927216105163097">
        <ele>1588.8900000000001</ele>
        <time>2025-01-26T12:38:04Z</time>
      </trkpt>
      <trkpt lat="45.884184585884213" lon="7.9273437615484">
        <ele>1588.1600000000001</ele>
        <time>2025-01-26T12:38:13Z</time>
      </trkpt>
      <trkpt lat="45.884171761572361" lon="7.927468987181783">
        <ele>1587.9400000000001</ele>
        <time>2025-01-26T12:38:27Z</time>
      </trkpt>
      <trkpt lat="45.884150890633464" lon="7.927559344097972">
        <ele>1587.1199999999999</ele>
        <time>2025-01-26T12:40:23Z</time>
      </trkpt>
      <trkpt lat="45.884090205654502" lon="7.927666716277599">
        <ele>1586.6600000000001</ele>
        <time>2025-01-26T12:40:33Z</time>
      </trkpt>
      <trkpt lat="45.884042847901583" lon="7.927784817293286">
        <ele>1586.03</ele>
        <time>2025-01-26T12:40:42Z</time>
      </trkpt>
      <trkpt lat="45.883984006941319" lon="7.927901325747371">
        <ele>1585.29</ele>
        <time>2025-01-26T12:40:51Z</time>
      </trkpt>
      <trkpt lat="45.883937571197748" lon="7.928015738725662">
        <ele>1584.98</ele>
        <time>2025-01-26T12:41:00Z</time>
      </trkpt>
      <trkpt lat="45.883885938674212" lon="7.928103245794773">
        <ele>1583.4000000000001</ele>
        <time>2025-01-26T12:43:23Z</time>
      </trkpt>
      <trkpt lat="45.883864983916283" lon="7.928115064278245">
        <ele>1584.22</ele>
        <time>2025-01-26T12:44:23Z</time>
      </trkpt>
      <trkpt lat="45.883888201788068" lon="7.928195111453533">
        <ele>1583.3699999999999</ele>
        <time>2025-01-26T12:44:44Z</time>
      </trkpt>
      <trkpt lat="45.883884765207767" lon="7.928243139758706">
        <ele>1582.5999999999999</ele>
        <time>2025-01-26T12:46:24Z</time>
      </trkpt>
      <trkpt lat="45.88381988927722" lon="7.92837674729526">
        <ele>1582.1600000000001</ele>
        <time>2025-01-26T12:46:45Z</time>
      </trkpt>
      <trkpt lat="45.883740512654185" lon="7.928473223000765">
        <ele>1581.2</ele>
        <time>2025-01-26T12:47:07Z</time>
      </trkpt>
      <trkpt lat="45.883734477683902" lon="7.928610518574715">
        <ele>1579.95</ele>
        <time>2025-01-26T12:47:16Z</time>
      </trkpt>
      <trkpt lat="45.883747972548008" lon="7.928704647347331">
        <ele>1579.3199999999999</ele>
        <time>2025-01-26T12:47:42Z</time>
      </trkpt>
      <trkpt lat="45.883791306987405" lon="7.92886289767921">
        <ele>1578.21</ele>
        <time>2025-01-26T12:48:04Z</time>
      </trkpt>
      <trkpt lat="45.883763646706939" lon="7.928993739187717">
        <ele>1576.72</ele>
        <time>2025-01-26T12:48:21Z</time>
      </trkpt>
      <trkpt lat="45.883712433278561" lon="7.929108319804072">
        <ele>1574.2</ele>
        <time>2025-01-26T12:48:35Z</time>
      </trkpt>
      <trkpt lat="45.883714612573385" lon="7.929247040301561">
        <ele>1572.49</ele>
        <time>2025-01-26T12:48:49Z</time>
      </trkpt>
      <trkpt lat="45.883743027225137" lon="7.929368410259485">
        <ele>1571.3099999999999</ele>
        <time>2025-01-26T12:49:01Z</time>
      </trkpt>
      <trkpt lat="45.883813602849841" lon="7.929475111886859">
        <ele>1570.1400000000001</ele>
        <time>2025-01-26T12:49:15Z</time>
      </trkpt>
      <trkpt lat="45.883903373032808" lon="7.929547447711229">
        <ele>1568.6600000000001</ele>
        <time>2025-01-26T12:49:34Z</time>
      </trkpt>
      <trkpt lat="45.883927680552006" lon="7.929680971428752">
        <ele>1565.76</ele>
        <time>2025-01-26T12:49:46Z</time>
      </trkpt>
      <trkpt lat="45.883940421044827" lon="7.929808041080833">
        <ele>1563.22</ele>
        <time>2025-01-26T12:50:00Z</time>
      </trkpt>
      <trkpt lat="45.88395869359374" lon="7.929927567020059">
        <ele>1561.24</ele>
        <time>2025-01-26T12:50:20Z</time>
      </trkpt>
      <trkpt lat="45.883959447965026" lon="7.930021695792675">
        <ele>1558.03</ele>
        <time>2025-01-26T12:50:43Z</time>
      </trkpt>
      <trkpt lat="45.883902786299586" lon="7.930094869807363">
        <ele>1555.8800000000001</ele>
        <time>2025-01-26T12:51:17Z</time>
      </trkpt>
      <trkpt lat="45.883878311142325" lon="7.930181622505188">
        <ele>1552.28</ele>
        <time>2025-01-26T12:51:57Z</time>
      </trkpt>
      <trkpt lat="45.88380622677505" lon="7.930206935852766">
        <ele>1548.46</ele>
        <time>2025-01-26T12:52:25Z</time>
      </trkpt>
      <trkpt lat="45.883754175156355" lon="7.930264184251428">
        <ele>1544.45</ele>
        <time>2025-01-26T12:53:15Z</time>
      </trkpt>
      <trkpt lat="45.883703799918294" lon="7.930326042696834">
        <ele>1540.6500000000001</ele>
        <time>2025-01-26T12:54:10Z</time>
      </trkpt>
      <trkpt lat="45.883764317259192" lon="7.93037180788815">
        <ele>1537.8900000000001</ele>
        <time>2025-01-26T12:54:38Z</time>
      </trkpt>
      <trkpt lat="45.88376272469759" lon="7.93049200437963">
        <ele>1533.6500000000001</ele>
        <time>2025-01-26T12:55:08Z</time>
      </trkpt>
      <trkpt lat="45.883679408580065" lon="7.930473648011684">
        <ele>1530.4000000000001</ele>
        <time>2025-01-26T12:55:24Z</time>
      </trkpt>
      <trkpt lat="45.883663734421134" lon="7.930541289970279">
        <ele>1528.1400000000001</ele>
        <time>2025-01-26T12:55:43Z</time>
      </trkpt>
      <trkpt lat="45.883571784943342" lon="7.930543636903167">
        <ele>1525.04</ele>
        <time>2025-01-26T12:56:16Z</time>
      </trkpt>
      <trkpt lat="45.883582513779402" lon="7.930636508390307">
        <ele>1520.9100000000001</ele>
        <time>2025-01-26T12:57:05Z</time>
      </trkpt>
      <trkpt lat="45.883614616468549" lon="7.930723344907165">
        <ele>1518.1800000000001</ele>
        <time>2025-01-26T12:57:31Z</time>
      </trkpt>
      <trkpt lat="45.883518476039171" lon="7.930711023509502">
        <ele>1516.02</ele>
        <time>2025-01-26T12:57:56Z</time>
      </trkpt>
      <trkpt lat="45.883457371965051" lon="7.93074756860733">
        <ele>1512.75</ele>
        <time>2025-01-26T12:58:19Z</time>
      </trkpt>
      <trkpt lat="45.883443709462881" lon="7.930801631882787">
        <ele>1508.73</ele>
        <time>2025-01-26T12:58:40Z</time>
      </trkpt>
      <trkpt lat="45.883439183235168" lon="7.930860808119178">
        <ele>1505.8399999999999</ele>
        <time>2025-01-26T12:58:59Z</time>
      </trkpt>
      <trkpt lat="45.883356789126992" lon="7.930874638259411">
        <ele>1502.5</ele>
        <time>2025-01-26T12:59:27Z</time>
      </trkpt>
      <trkpt lat="45.883332062512636" lon="7.930963821709156">
        <ele>1499.76</ele>
        <time>2025-01-26T12:59:56Z</time>
      </trkpt>
      <trkpt lat="45.883307587355375" lon="7.931068846955895">
        <ele>1496.0799999999999</ele>
        <time>2025-01-26T13:00:15Z</time>
      </trkpt>
      <trkpt lat="45.883300295099616" lon="7.931144284084439">
        <ele>1492.3499999999999</ele>
        <time>2025-01-26T13:00:39Z</time>
      </trkpt>
      <trkpt lat="45.883228043094277" lon="7.93120346032083">
        <ele>1488.1600000000001</ele>
        <time>2025-01-26T13:00:58Z</time>
      </trkpt>
      <trkpt lat="45.883225444704294" lon="7.931269006803632">
        <ele>1484.6300000000001</ele>
        <time>2025-01-26T13:01:16Z</time>
      </trkpt>
      <trkpt lat="45.883092675358057" lon="7.931288871914148">
        <ele>1483.02</ele>
        <time>2025-01-26T13:01:37Z</time>
      </trkpt>
      <trkpt lat="45.883017657324672" lon="7.931324746459723">
        <ele>1479.8</ele>
        <time>2025-01-26T13:01:56Z</time>
      </trkpt>
      <trkpt lat="45.882977172732353" lon="7.931411331519485">
        <ele>1476.23</ele>
        <time>2025-01-26T13:02:16Z</time>
      </trkpt>
      <trkpt lat="45.88293693959713" lon="7.931514764204621">
        <ele>1471.8099999999999</ele>
        <time>2025-01-26T13:02:39Z</time>
      </trkpt>
      <trkpt lat="45.882828226312995" lon="7.931527001783252">
        <ele>1468.9100000000001</ele>
        <time>2025-01-26T13:02:57Z</time>
      </trkpt>
      <trkpt lat="45.882741892710328" lon="7.931547285988927">
        <ele>1465.79</ele>
        <time>2025-01-26T13:03:14Z</time>
      </trkpt>
      <trkpt lat="45.882659498602152" lon="7.931514009833336">
        <ele>1463.3599999999999</ele>
        <time>2025-01-26T13:03:31Z</time>
      </trkpt>
      <trkpt lat="45.882609877735376" lon="7.931573940441012">
        <ele>1460.27</ele>
        <time>2025-01-26T13:03:47Z</time>
      </trkpt>
      <trkpt lat="45.882650949060917" lon="7.931676618754864">
        <ele>1457.3199999999999</ele>
        <time>2025-01-26T13:04:02Z</time>
      </trkpt>
      <trkpt lat="45.882553216069937" lon="7.931680306792259">
        <ele>1455.1199999999999</ele>
        <time>2025-01-26T13:04:22Z</time>
      </trkpt>
      <trkpt lat="45.882447436451912" lon="7.931708469986916">
        <ele>1450.95</ele>
        <time>2025-01-26T13:04:40Z</time>
      </trkpt>
      <trkpt lat="45.882500242441893" lon="7.9317956417799">
        <ele>1448.5799999999999</ele>
        <time>2025-01-26T13:04:59Z</time>
      </trkpt>
      <trkpt lat="45.882469397038221" lon="7.931804358959198">
        <ele>1443.0599999999999</ele>
        <time>2025-01-26T13:05:32Z</time>
      </trkpt>
      <trkpt lat="45.882414495572448" lon="7.931812070310116">
        <ele>1440.22</ele>
        <time>2025-01-26T13:05:52Z</time>
      </trkpt>
      <trkpt lat="45.882404856383801" lon="7.931840820237994">
        <ele>1437.4400000000001</ele>
        <time>2025-01-26T13:06:09Z</time>
      </trkpt>
      <trkpt lat="45.882321204990149" lon="7.931755492463708">
        <ele>1434.4200000000001</ele>
        <time>2025-01-26T13:06:42Z</time>
      </trkpt>
      <trkpt lat="45.882249455899" lon="7.931677205488086">
        <ele>1432.8499999999999</ele>
        <time>2025-01-26T13:06:58Z</time>
      </trkpt>
      <trkpt lat="45.882151136174798" lon="7.931624315679073">
        <ele>1431.3299999999999</ele>
        <time>2025-01-26T13:07:06Z</time>
      </trkpt>
      <trkpt lat="45.882056336849928" lon="7.931636301800609">
        <ele>1429.8599999999999</ele>
        <time>2025-01-26T13:07:18Z</time>
      </trkpt>
      <trkpt lat="45.881961537525058" lon="7.931655831634998">
        <ele>1426.9100000000001</ele>
        <time>2025-01-26T13:07:28Z</time>
      </trkpt>
      <trkpt lat="45.881869001314044" lon="7.931681396439672">
        <ele>1424.75</ele>
        <time>2025-01-26T13:07:39Z</time>
      </trkpt>
      <trkpt lat="45.881767580285668" lon="7.931724479421973">
        <ele>1422.5599999999999</ele>
        <time>2025-01-26T13:07:50Z</time>
      </trkpt>
      <trkpt lat="45.881670936942101" lon="7.931788433343172">
        <ele>1421.74</ele>
        <time>2025-01-26T13:08:02Z</time>
      </trkpt>
      <trkpt lat="45.881588626652956" lon="7.931862194091082">
        <ele>1421.4300000000001</ele>
        <time>2025-01-26T13:08:12Z</time>
      </trkpt>
      <trkpt lat="45.881527941673994" lon="7.931976020336151">
        <ele>1420.3699999999999</ele>
        <time>2025-01-26T13:08:25Z</time>
      </trkpt>
      <trkpt lat="45.881492821499705" lon="7.932104766368866">
        <ele>1418.75</ele>
        <time>2025-01-26T13:08:38Z</time>
      </trkpt>
      <trkpt lat="45.881424006074667" lon="7.932215072214603">
        <ele>1417.4200000000001</ele>
        <time>2025-01-26T13:08:52Z</time>
      </trkpt>
      <trkpt lat="45.881357286125422" lon="7.932319007813931">
        <ele>1416.6700000000001</ele>
        <time>2025-01-26T13:09:14Z</time>
      </trkpt>
      <trkpt lat="45.881284363567829" lon="7.932449011132121">
        <ele>1416.1500000000001</ele>
        <time>2025-01-26T13:09:25Z</time>
      </trkpt>
      <trkpt lat="45.881269611418247" lon="7.932548001408577">
        <ele>1415.8800000000001</ele>
        <time>2025-01-26T13:09:38Z</time>
      </trkpt>
      <trkpt lat="45.881265588104725" lon="7.932566106319428">
        <ele>1415.8499999999999</ele>
        <time>2025-01-26T13:10:05Z</time>
      </trkpt>
      <trkpt lat="45.881358962506056" lon="7.932636933401227">
        <ele>1414.5599999999999</ele>
        <time>2025-01-26T13:10:40Z</time>
      </trkpt>
      <trkpt lat="45.881317555904388" lon="7.932611703872681">
        <ele>1414.03</ele>
        <time>2025-01-26T13:11:05Z</time>
      </trkpt>
      <trkpt lat="45.88135234080255" lon="7.932613883167505">
        <ele>1414.76</ele>
        <time>2025-01-26T13:11:22Z</time>
      </trkpt>
      <trkpt lat="45.881287045776844" lon="7.932715388014913">
        <ele>1414.3399999999999</ele>
        <time>2025-01-26T13:11:39Z</time>
      </trkpt>
      <trkpt lat="45.881222086027265" lon="7.932826532050967">
        <ele>1414</ele>
        <time>2025-01-26T13:11:48Z</time>
      </trkpt>
      <trkpt lat="45.881157964468002" lon="7.932932982221246">
        <ele>1413.0599999999999</ele>
        <time>2025-01-26T13:11:57Z</time>
      </trkpt>
      <trkpt lat="45.881101302802563" lon="7.93304705992341">
        <ele>1411.8199999999999</ele>
        <time>2025-01-26T13:12:07Z</time>
      </trkpt>
      <trkpt lat="45.881010359153152" lon="7.933138757944107">
        <ele>1410.4200000000001</ele>
        <time>2025-01-26T13:12:15Z</time>
      </trkpt>
      <trkpt lat="45.880925199016929" lon="7.933183014392853">
        <ele>1409.7</ele>
        <time>2025-01-26T13:12:22Z</time>
      </trkpt>
      <trkpt lat="45.88087054900825" lon="7.933276053518057">
        <ele>1409.51</ele>
        <time>2025-01-26T13:12:31Z</time>
      </trkpt>
      <trkpt lat="45.88078455068171" lon="7.9333480540663">
        <ele>1409.45</ele>
        <time>2025-01-26T13:12:41Z</time>
      </trkpt>
      <trkpt lat="45.880716824904084" lon="7.933487193658948">
        <ele>1408.3499999999999</ele>
        <time>2025-01-26T13:12:52Z</time>
      </trkpt>
      <trkpt lat="45.880656475201249" lon="7.93358450755477">
        <ele>1408.22</ele>
        <time>2025-01-26T13:13:02Z</time>
      </trkpt>
      <trkpt lat="45.880567794665694" lon="7.933658603578806">
        <ele>1407.5799999999999</ele>
        <time>2025-01-26T13:13:13Z</time>
      </trkpt>
      <trkpt lat="45.880478778854012" lon="7.933707889169455">
        <ele>1406.3399999999999</ele>
        <time>2025-01-26T13:13:22Z</time>
      </trkpt>
      <trkpt lat="45.880398983135819" lon="7.933783326297998">
        <ele>1403.8699999999999</ele>
        <time>2025-01-26T13:13:32Z</time>
      </trkpt>
      <trkpt lat="45.880287420004606" lon="7.933823643252254">
        <ele>1403.7</ele>
        <time>2025-01-26T13:13:42Z</time>
      </trkpt>
      <trkpt lat="45.880204606801271" lon="7.933781901374459">
        <ele>1405.9200000000001</ele>
        <time>2025-01-26T13:13:59Z</time>
      </trkpt>
      <trkpt lat="45.880100168287754" lon="7.933761784806848">
        <ele>1404.3800000000001</ele>
        <time>2025-01-26T13:14:14Z</time>
      </trkpt>
      <trkpt lat="45.879996819421649" lon="7.933807130903006">
        <ele>1403.22</ele>
        <time>2025-01-26T13:14:23Z</time>
      </trkpt>
      <trkpt lat="45.87989330291748" lon="7.933852476999164">
        <ele>1401.3800000000001</ele>
        <time>2025-01-26T13:14:32Z</time>
      </trkpt>
      <trkpt lat="45.87979263626039" lon="7.933902014046907">
        <ele>1401.24</ele>
        <time>2025-01-26T13:14:42Z</time>
      </trkpt>
      <trkpt lat="45.879676127806306" lon="7.933957250788808">
        <ele>1400.6400000000001</ele>
        <time>2025-01-26T13:14:52Z</time>
      </trkpt>
      <trkpt lat="45.879563307389617" lon="7.933967811986804">
        <ele>1400.5899999999999</ele>
        <time>2025-01-26T13:15:01Z</time>
      </trkpt>
      <trkpt lat="45.879461970180273" lon="7.933965884149075">
        <ele>1402.05</ele>
        <time>2025-01-26T13:15:14Z</time>
      </trkpt>
      <trkpt lat="45.87937873788178" lon="7.934033526107669">
        <ele>1400.98</ele>
        <time>2025-01-26T13:15:23Z</time>
      </trkpt>
      <trkpt lat="45.879311766475439" lon="7.934086164459586">
        <ele>1399.5699999999999</ele>
        <time>2025-01-26T13:15:30Z</time>
      </trkpt>
      <trkpt lat="45.879247477278113" lon="7.934147603809834">
        <ele>1398.4400000000001</ele>
        <time>2025-01-26T13:15:39Z</time>
      </trkpt>
      <trkpt lat="45.879171956330538" lon="7.934193452820182">
        <ele>1398.3099999999999</ele>
        <time>2025-01-26T13:15:48Z</time>
      </trkpt>
      <trkpt lat="45.879085790365934" lon="7.934277942404151">
        <ele>1397.3900000000001</ele>
        <time>2025-01-26T13:15:56Z</time>
      </trkpt>
      <trkpt lat="45.879003647714853" lon="7.934341728687286">
        <ele>1396.8</ele>
        <time>2025-01-26T13:16:04Z</time>
      </trkpt>
      <trkpt lat="45.878900047391653" lon="7.934394031763077">
        <ele>1395.3299999999999</ele>
        <time>2025-01-26T13:16:12Z</time>
      </trkpt>
      <trkpt lat="45.878801057115197" lon="7.934378609061241">
        <ele>1394.74</ele>
        <time>2025-01-26T13:16:19Z</time>
      </trkpt>
      <trkpt lat="45.87871472351253" lon="7.93439663015306">
        <ele>1394.3800000000001</ele>
        <time>2025-01-26T13:16:28Z</time>
      </trkpt>
      <trkpt lat="45.878647416830063" lon="7.934461589902639">
        <ele>1395.0999999999999</ele>
        <time>2025-01-26T13:16:39Z</time>
      </trkpt>
      <trkpt lat="45.878528226166964" lon="7.934478856623173">
        <ele>1395.0699999999999</ele>
        <time>2025-01-26T13:16:49Z</time>
      </trkpt>
      <trkpt lat="45.878525963053107" lon="7.93449679389596">
        <ele>1396.5</ele>
        <time>2025-01-26T13:17:39Z</time>
      </trkpt>
      <trkpt lat="45.878440048545599" lon="7.934499140828848">
        <ele>1396.6800000000001</ele>
        <time>2025-01-26T13:18:27Z</time>
      </trkpt>
      <trkpt lat="45.878347679972649" lon="7.934535602107644">
        <ele>1396.0699999999999</ele>
        <time>2025-01-26T13:18:37Z</time>
      </trkpt>
      <trkpt lat="45.878262771293521" lon="7.934605590999126">
        <ele>1394.95</ele>
        <time>2025-01-26T13:18:49Z</time>
      </trkpt>
      <trkpt lat="45.878185322508216" lon="7.934692092239857">
        <ele>1394.01</ele>
        <time>2025-01-26T13:18:58Z</time>
      </trkpt>
      <trkpt lat="45.87811416015029" lon="7.934779934585095">
        <ele>1393.1700000000001</ele>
        <time>2025-01-26T13:19:07Z</time>
      </trkpt>
      <trkpt lat="45.878047356382012" lon="7.934830309823155">
        <ele>1392.8099999999999</ele>
        <time>2025-01-26T13:19:24Z</time>
      </trkpt>
      <trkpt lat="45.877958089113235" lon="7.934857634827495">
        <ele>1392.48</ele>
        <time>2025-01-26T13:19:48Z</time>
      </trkpt>
      <trkpt lat="45.877880807965994" lon="7.934830812737346">
        <ele>1392.0999999999999</ele>
        <time>2025-01-26T13:20:01Z</time>
      </trkpt>
      <trkpt lat="45.877849124372005" lon="7.934808265417814">
        <ele>1391.3</ele>
        <time>2025-01-26T13:20:33Z</time>
      </trkpt>
      <trkpt lat="45.877868151292205" lon="7.93481295928359">
        <ele>1391.6400000000001</ele>
        <time>2025-01-26T13:21:23Z</time>
      </trkpt>
      <trkpt lat="45.877887597307563" lon="7.9348417930305">
        <ele>1392.78</ele>
        <time>2025-01-26T13:22:23Z</time>
      </trkpt>
      <trkpt lat="45.877835797145963" lon="7.934881271794438">
        <ele>1393.55</ele>
        <time>2025-01-26T13:22:59Z</time>
      </trkpt>
      <trkpt lat="45.877749128267169" lon="7.93486962094903">
        <ele>1392.74</ele>
        <time>2025-01-26T13:23:11Z</time>
      </trkpt>
      <trkpt lat="45.877657597884536" lon="7.934874817728996">
        <ele>1391.3599999999999</ele>
        <time>2025-01-26T13:23:21Z</time>
      </trkpt>
      <trkpt lat="45.877552907913923" lon="7.934874650090933">
        <ele>1390.2</ele>
        <time>2025-01-26T13:23:33Z</time>
      </trkpt>
      <trkpt lat="45.877451319247484" lon="7.934886887669563">
        <ele>1388.8499999999999</ele>
        <time>2025-01-26T13:23:45Z</time>
      </trkpt>
      <trkpt lat="45.877356184646487" lon="7.934875907376409">
        <ele>1387.5599999999999</ele>
        <time>2025-01-26T13:23:57Z</time>
      </trkpt>
      <trkpt lat="45.877263732254505" lon="7.934874147176743">
        <ele>1386.53</ele>
        <time>2025-01-26T13:24:09Z</time>
      </trkpt>
      <trkpt lat="45.877148481085896" lon="7.934913625940681">
        <ele>1385.3599999999999</ele>
        <time>2025-01-26T13:24:18Z</time>
      </trkpt>
      <trkpt lat="45.877042952924967" lon="7.934943633154035">
        <ele>1384.1199999999999</ele>
        <time>2025-01-26T13:24:28Z</time>
      </trkpt>
      <trkpt lat="45.87693708948791" lon="7.934962157160044">
        <ele>1382.9400000000001</ele>
        <time>2025-01-26T13:24:36Z</time>
      </trkpt>
      <trkpt lat="45.876831309869885" lon="7.934972802177072">
        <ele>1381.8499999999999</ele>
        <time>2025-01-26T13:24:46Z</time>
      </trkpt>
      <trkpt lat="45.876725362613797" lon="7.9349868837744">
        <ele>1380.71</ele>
        <time>2025-01-26T13:24:57Z</time>
      </trkpt>
      <trkpt lat="45.876623271033168" lon="7.93500398285687">
        <ele>1379.6099999999999</ele>
        <time>2025-01-26T13:25:07Z</time>
      </trkpt>
      <trkpt lat="45.876512546092272" lon="7.935025775805116">
        <ele>1378.5899999999999</ele>
        <time>2025-01-26T13:25:19Z</time>
      </trkpt>
      <trkpt lat="45.876412549987435" lon="7.935052681714296">
        <ele>1377.51</ele>
        <time>2025-01-26T13:25:28Z</time>
      </trkpt>
      <trkpt lat="45.876315403729677" lon="7.935086879879236">
        <ele>1376.48</ele>
        <time>2025-01-26T13:25:38Z</time>
      </trkpt>
      <trkpt lat="45.876230243593454" lon="7.935136333107948">
        <ele>1375.1800000000001</ele>
        <time>2025-01-26T13:25:47Z</time>
      </trkpt>
      <trkpt lat="45.876131504774094" lon="7.935178829357028">
        <ele>1373.6800000000001</ele>
        <time>2025-01-26T13:25:57Z</time>
      </trkpt>
      <trkpt lat="45.876035196706653" lon="7.935230880975723">
        <ele>1372.52</ele>
        <time>2025-01-26T13:26:06Z</time>
      </trkpt>
      <trkpt lat="45.875944336876273" lon="7.935273293405771">
        <ele>1371.6199999999999</ele>
        <time>2025-01-26T13:26:14Z</time>
      </trkpt>
      <trkpt lat="45.875841239467263" lon="7.935309670865536">
        <ele>1370.1500000000001</ele>
        <time>2025-01-26T13:26:24Z</time>
      </trkpt>
      <trkpt lat="45.875746021047235" lon="7.935345796868205">
        <ele>1368.72</ele>
        <time>2025-01-26T13:26:32Z</time>
      </trkpt>
      <trkpt lat="45.875635966658592" lon="7.93538904748857">
        <ele>1367.48</ele>
        <time>2025-01-26T13:26:40Z</time>
      </trkpt>
      <trkpt lat="45.875525996088982" lon="7.935413606464863">
        <ele>1366.05</ele>
        <time>2025-01-26T13:26:49Z</time>
      </trkpt>
      <trkpt lat="45.875416276976466" lon="7.935439255088568">
        <ele>1364.1800000000001</ele>
        <time>2025-01-26T13:26:58Z</time>
      </trkpt>
      <trkpt lat="45.875312425196171" lon="7.935475213453174">
        <ele>1362.2</ele>
        <time>2025-01-26T13:27:09Z</time>
      </trkpt>
      <trkpt lat="45.875211590901017" lon="7.935509327799082">
        <ele>1360.8299999999999</ele>
        <time>2025-01-26T13:27:21Z</time>
      </trkpt>
      <trkpt lat="45.875104386359453" lon="7.935532126575708">
        <ele>1359.21</ele>
        <time>2025-01-26T13:27:47Z</time>
      </trkpt>
      <trkpt lat="45.875016124919057" lon="7.935613095760346">
        <ele>1357.8499999999999</ele>
        <time>2025-01-26T13:28:08Z</time>
      </trkpt>
      <trkpt lat="45.874921828508377" lon="7.935628015547991">
        <ele>1356.97</ele>
        <time>2025-01-26T13:28:34Z</time>
      </trkpt>
      <trkpt lat="45.874823173508048" lon="7.935638409107924">
        <ele>1355.4000000000001</ele>
        <time>2025-01-26T13:28:46Z</time>
      </trkpt>
      <trkpt lat="45.874731224030256" lon="7.935656346380711">
        <ele>1353.77</ele>
        <time>2025-01-26T13:28:55Z</time>
      </trkpt>
      <trkpt lat="45.874638436362147" lon="7.935660369694233">
        <ele>1352.2</ele>
        <time>2025-01-26T13:29:03Z</time>
      </trkpt>
      <trkpt lat="45.874557970091701" lon="7.93567487038672">
        <ele>1350.9400000000001</ele>
        <time>2025-01-26T13:29:11Z</time>
      </trkpt>
      <trkpt lat="45.87446752935648" lon="7.935687862336636">
        <ele>1349.28</ele>
        <time>2025-01-26T13:29:25Z</time>
      </trkpt>
      <trkpt lat="45.87435563094914" lon="7.935723066329956">
        <ele>1347.6099999999999</ele>
        <time>2025-01-26T13:29:39Z</time>
      </trkpt>
      <trkpt lat="45.874260831624269" lon="7.935758521780372">
        <ele>1345.52</ele>
        <time>2025-01-26T13:29:51Z</time>
      </trkpt>
      <trkpt lat="45.874167373403907" lon="7.935794899240136">
        <ele>1344.3499999999999</ele>
        <time>2025-01-26T13:30:04Z</time>
      </trkpt>
      <trkpt lat="45.874070394784212" lon="7.935838820412755">
        <ele>1342.2</ele>
        <time>2025-01-26T13:30:15Z</time>
      </trkpt>
      <trkpt lat="45.873984731733799" lon="7.935899421572685">
        <ele>1340.6800000000001</ele>
        <time>2025-01-26T13:30:27Z</time>
      </trkpt>
      <trkpt lat="45.873896637931466" lon="7.935982905328274">
        <ele>1339.1700000000001</ele>
        <time>2025-01-26T13:30:38Z</time>
      </trkpt>
      <trkpt lat="45.873814495280385" lon="7.936064125970006">
        <ele>1337.73</ele>
        <time>2025-01-26T13:30:50Z</time>
      </trkpt>
      <trkpt lat="45.873709470033646" lon="7.936115674674511">
        <ele>1336.6300000000001</ele>
        <time>2025-01-26T13:31:02Z</time>
      </trkpt>
      <trkpt lat="45.8736134134233" lon="7.936155069619417">
        <ele>1335.6600000000001</ele>
        <time>2025-01-26T13:31:11Z</time>
      </trkpt>
      <trkpt lat="45.873512662947178" lon="7.936178203672171">
        <ele>1334.9100000000001</ele>
        <time>2025-01-26T13:31:20Z</time>
      </trkpt>
      <trkpt lat="45.873420378193259" lon="7.936200750991702">
        <ele>1333.5599999999999</ele>
        <time>2025-01-26T13:31:29Z</time>
      </trkpt>
      <trkpt lat="45.873327422887087" lon="7.93621726334095">
        <ele>1332.77</ele>
        <time>2025-01-26T13:31:38Z</time>
      </trkpt>
      <trkpt lat="45.873235557228327" lon="7.936240900307894">
        <ele>1331.99</ele>
        <time>2025-01-26T13:31:47Z</time>
      </trkpt>
      <trkpt lat="45.873139416798949" lon="7.936251712962985">
        <ele>1331.0699999999999</ele>
        <time>2025-01-26T13:31:57Z</time>
      </trkpt>
      <trkpt lat="45.873034978285432" lon="7.936266548931599">
        <ele>1330.5699999999999</ele>
        <time>2025-01-26T13:32:08Z</time>
      </trkpt>
      <trkpt lat="45.872939508408308" lon="7.936294628307223">
        <ele>1330.1500000000001</ele>
        <time>2025-01-26T13:32:18Z</time>
      </trkpt>
      <trkpt lat="45.872843116521835" lon="7.936338465660811">
        <ele>1329.51</ele>
        <time>2025-01-26T13:32:27Z</time>
      </trkpt>
      <trkpt lat="45.872738510370255" lon="7.936387667432427">
        <ele>1328.1600000000001</ele>
        <time>2025-01-26T13:32:37Z</time>
      </trkpt>
      <trkpt lat="45.872641112655401" lon="7.93644005432725">
        <ele>1327.76</ele>
        <time>2025-01-26T13:32:46Z</time>
      </trkpt>
      <trkpt lat="45.872552264481783" lon="7.936497638002038">
        <ele>1327.22</ele>
        <time>2025-01-26T13:32:55Z</time>
      </trkpt>
      <trkpt lat="45.872451849281788" lon="7.936553880572319">
        <ele>1326.27</ele>
        <time>2025-01-26T13:33:04Z</time>
      </trkpt>
      <trkpt lat="45.87236107327044" lon="7.936608362942934">
        <ele>1325.6199999999999</ele>
        <time>2025-01-26T13:33:13Z</time>
      </trkpt>
      <trkpt lat="45.872273650020361" lon="7.936671311035752">
        <ele>1325.03</ele>
        <time>2025-01-26T13:33:22Z</time>
      </trkpt>
      <trkpt lat="45.872196620330215" lon="7.93674155138433">
        <ele>1324.25</ele>
        <time>2025-01-26T13:33:31Z</time>
      </trkpt>
      <trkpt lat="45.872106347233057" lon="7.936816485598683">
        <ele>1323.23</ele>
        <time>2025-01-26T13:33:41Z</time>
      </trkpt>
      <trkpt lat="45.872026719152927" lon="7.93688228353858">
        <ele>1322.1300000000001</ele>
        <time>2025-01-26T13:33:49Z</time>
      </trkpt>
      <trkpt lat="45.871933428570628" lon="7.936953362077475">
        <ele>1321.22</ele>
        <time>2025-01-26T13:33:58Z</time>
      </trkpt>
      <trkpt lat="45.871837539598346" lon="7.93702594935894">
        <ele>1320.3399999999999</ele>
        <time>2025-01-26T13:34:07Z</time>
      </trkpt>
      <trkpt lat="45.871750367805362" lon="7.937088143080473">
        <ele>1319.3</ele>
        <time>2025-01-26T13:34:15Z</time>
      </trkpt>
      <trkpt lat="45.871665962040424" lon="7.937152264639735">
        <ele>1318.0699999999999</ele>
        <time>2025-01-26T13:34:24Z</time>
      </trkpt>
      <trkpt lat="45.871575102210045" lon="7.937207501381636">
        <ele>1317</ele>
        <time>2025-01-26T13:34:33Z</time>
      </trkpt>
      <trkpt lat="45.871472842991352" lon="7.937223091721535">
        <ele>1316.6800000000001</ele>
        <time>2025-01-26T13:34:42Z</time>
      </trkpt>
      <trkpt lat="45.871372176334262" lon="7.937205825001001">
        <ele>1316.29</ele>
        <time>2025-01-26T13:34:52Z</time>
      </trkpt>
      <trkpt lat="45.871278131380677" lon="7.937217727303505">
        <ele>1315.79</ele>
        <time>2025-01-26T13:35:02Z</time>
      </trkpt>
      <trkpt lat="45.871186181902885" lon="7.937176069244742">
        <ele>1315.1900000000001</ele>
        <time>2025-01-26T13:35:13Z</time>
      </trkpt>
      <trkpt lat="45.871082916855812" lon="7.937178667634726">
        <ele>1314.5899999999999</ele>
        <time>2025-01-26T13:35:23Z</time>
      </trkpt>
      <trkpt lat="45.870983758941293" lon="7.937188390642405">
        <ele>1313.8399999999999</ele>
        <time>2025-01-26T13:35:32Z</time>
      </trkpt>
      <trkpt lat="45.870880158618093" lon="7.93721261434257">
        <ele>1313.46</ele>
        <time>2025-01-26T13:35:41Z</time>
      </trkpt>
      <trkpt lat="45.870783096179366" lon="7.937252428382635">
        <ele>1312.6500000000001</ele>
        <time>2025-01-26T13:35:49Z</time>
      </trkpt>
      <trkpt lat="45.870691398158669" lon="7.937273299321532">
        <ele>1311.9000000000001</ele>
        <time>2025-01-26T13:36:03Z</time>
      </trkpt>
      <trkpt lat="45.87059274315834" lon="7.937302635982633">
        <ele>1310.8199999999999</ele>
        <time>2025-01-26T13:36:12Z</time>
      </trkpt>
      <trkpt lat="45.870495932176709" lon="7.937324596568942">
        <ele>1309.3499999999999</ele>
        <time>2025-01-26T13:36:21Z</time>
      </trkpt>
      <trkpt lat="45.870405239984393" lon="7.937349993735552">
        <ele>1307.54</ele>
        <time>2025-01-26T13:36:30Z</time>
      </trkpt>
      <trkpt lat="45.870309099555016" lon="7.937375223264098">
        <ele>1305.8399999999999</ele>
        <time>2025-01-26T13:36:39Z</time>
      </trkpt>
      <trkpt lat="45.870208684355021" lon="7.937410846352577">
        <ele>1304.49</ele>
        <time>2025-01-26T13:36:48Z</time>
      </trkpt>
      <trkpt lat="45.870111035183072" lon="7.9374442063272">
        <ele>1302.9100000000001</ele>
        <time>2025-01-26T13:36:57Z</time>
      </trkpt>
      <trkpt lat="45.870003998279572" lon="7.937462143599987">
        <ele>1301.46</ele>
        <time>2025-01-26T13:37:06Z</time>
      </trkpt>
      <trkpt lat="45.869902409613132" lon="7.937477482482791">
        <ele>1300.4400000000001</ele>
        <time>2025-01-26T13:37:15Z</time>
      </trkpt>
      <trkpt lat="45.869807191193104" lon="7.937480164691806">
        <ele>1299.04</ele>
        <time>2025-01-26T13:37:24Z</time>
      </trkpt>
      <trkpt lat="45.869710464030504" lon="7.937475638464093">
        <ele>1297.6600000000001</ele>
        <time>2025-01-26T13:37:33Z</time>
      </trkpt>
      <trkpt lat="45.869622202590108" lon="7.937442194670439">
        <ele>1296.3</ele>
        <time>2025-01-26T13:37:43Z</time>
      </trkpt>
      <trkpt lat="45.869535868987441" lon="7.937389723956585">
        <ele>1295.1900000000001</ele>
        <time>2025-01-26T13:37:53Z</time>
      </trkpt>
      <trkpt lat="45.869440734386444" lon="7.937333816662431">
        <ele>1293.8599999999999</ele>
        <time>2025-01-26T13:38:03Z</time>
      </trkpt>
      <trkpt lat="45.869343420490623" lon="7.937293332070112">
        <ele>1292.97</ele>
        <time>2025-01-26T13:38:12Z</time>
      </trkpt>
      <trkpt lat="45.86924803443253" lon="7.937253601849079">
        <ele>1292.0799999999999</ele>
        <time>2025-01-26T13:38:21Z</time>
      </trkpt>
      <trkpt lat="45.869158767163754" lon="7.937201717868447">
        <ele>1291.5899999999999</ele>
        <time>2025-01-26T13:38:29Z</time>
      </trkpt>
      <trkpt lat="45.869066314771771" lon="7.937145726755261">
        <ele>1290.8199999999999</ele>
        <time>2025-01-26T13:38:38Z</time>
      </trkpt>
      <trkpt lat="45.868963301181793" lon="7.937146564945579">
        <ele>1290.6500000000001</ele>
        <time>2025-01-26T13:38:47Z</time>
      </trkpt>
      <trkpt lat="45.868866825476289" lon="7.937160562723875">
        <ele>1290.21</ele>
        <time>2025-01-26T13:38:56Z</time>
      </trkpt>
      <trkpt lat="45.868780659511685" lon="7.937227869406343">
        <ele>1289.6199999999999</ele>
        <time>2025-01-26T13:39:06Z</time>
      </trkpt>
      <trkpt lat="45.868704551830888" lon="7.937311185523868">
        <ele>1289.05</ele>
        <time>2025-01-26T13:39:14Z</time>
      </trkpt>
      <trkpt lat="45.868632635101676" lon="7.937396848574281">
        <ele>1288.04</ele>
        <time>2025-01-26T13:39:22Z</time>
      </trkpt>
      <trkpt lat="45.868554012849927" lon="7.937464993447065">
        <ele>1287.1900000000001</ele>
        <time>2025-01-26T13:39:31Z</time>
      </trkpt>
      <trkpt lat="45.868456196039915" lon="7.937544453889132">
        <ele>1286.1300000000001</ele>
        <time>2025-01-26T13:39:40Z</time>
      </trkpt>
      <trkpt lat="45.868356032297015" lon="7.937605222687125">
        <ele>1285.01</ele>
        <time>2025-01-26T13:39:49Z</time>
      </trkpt>
      <trkpt lat="45.868258299306035" lon="7.937670601531863">
        <ele>1284.1900000000001</ele>
        <time>2025-01-26T13:39:58Z</time>
      </trkpt>
      <trkpt lat="45.868158806115389" lon="7.937734387814999">
        <ele>1283.4400000000001</ele>
        <time>2025-01-26T13:40:07Z</time>
      </trkpt>
      <trkpt lat="45.868066437542439" lon="7.93777990154922">
        <ele>1282.74</ele>
        <time>2025-01-26T13:40:15Z</time>
      </trkpt>
      <trkpt lat="45.867963507771492" lon="7.937810914590955">
        <ele>1282.03</ele>
        <time>2025-01-26T13:40:23Z</time>
      </trkpt>
      <trkpt lat="45.867852866649628" lon="7.937841173261404">
        <ele>1281.28</ele>
        <time>2025-01-26T13:40:31Z</time>
      </trkpt>
      <trkpt lat="45.867753960192204" lon="7.937814015895128">
        <ele>1280.8599999999999</ele>
        <time>2025-01-26T13:40:39Z</time>
      </trkpt>
      <trkpt lat="45.867660166695714" lon="7.937760706990957">
        <ele>1280.3599999999999</ele>
        <time>2025-01-26T13:40:48Z</time>
      </trkpt>
      <trkpt lat="45.867577353492379" lon="7.937691807746887">
        <ele>1279.6700000000001</ele>
        <time>2025-01-26T13:40:56Z</time>
      </trkpt>
      <trkpt lat="45.867498060688376" lon="7.937598684802651">
        <ele>1279.1700000000001</ele>
        <time>2025-01-26T13:41:05Z</time>
      </trkpt>
      <trkpt lat="45.867428742349148" lon="7.937519559636712">
        <ele>1278.3199999999999</ele>
        <time>2025-01-26T13:41:13Z</time>
      </trkpt>
      <trkpt lat="45.867362357676029" lon="7.93741587549448">
        <ele>1277.0799999999999</ele>
        <time>2025-01-26T13:41:22Z</time>
      </trkpt>
      <trkpt lat="45.867284573614597" lon="7.937328116968274">
        <ele>1275.75</ele>
        <time>2025-01-26T13:41:31Z</time>
      </trkpt>
      <trkpt lat="45.867215758189559" lon="7.93722384609282">
        <ele>1274.3699999999999</ele>
        <time>2025-01-26T13:41:39Z</time>
      </trkpt>
      <trkpt lat="45.867144763469696" lon="7.937130052596331">
        <ele>1272.6600000000001</ele>
        <time>2025-01-26T13:41:48Z</time>
      </trkpt>
      <trkpt lat="45.86706873960793" lon="7.937035588547587">
        <ele>1271.3099999999999</ele>
        <time>2025-01-26T13:41:57Z</time>
      </trkpt>
      <trkpt lat="45.867009731009603" lon="7.936938274651766">
        <ele>1270.5799999999999</ele>
        <time>2025-01-26T13:42:05Z</time>
      </trkpt>
      <trkpt lat="45.866939825937152" lon="7.936852192506194">
        <ele>1270.05</ele>
        <time>2025-01-26T13:42:13Z</time>
      </trkpt>
      <trkpt lat="45.866860449314117" lon="7.936777342110872">
        <ele>1269.55</ele>
        <time>2025-01-26T13:42:21Z</time>
      </trkpt>
      <trkpt lat="45.866777719929814" lon="7.936714896932244">
        <ele>1268.8900000000001</ele>
        <time>2025-01-26T13:42:29Z</time>
      </trkpt>
      <trkpt lat="45.866690631955862" lon="7.936671227216721">
        <ele>1268.3099999999999</ele>
        <time>2025-01-26T13:42:37Z</time>
      </trkpt>
      <trkpt lat="45.866596503183246" lon="7.936639795079827">
        <ele>1267.8</ele>
        <time>2025-01-26T13:42:46Z</time>
      </trkpt>
      <trkpt lat="45.866498602554202" lon="7.936613894999027">
        <ele>1267.25</ele>
        <time>2025-01-26T13:42:54Z</time>
      </trkpt>
      <trkpt lat="45.866397935897112" lon="7.936584390699863">
        <ele>1266.48</ele>
        <time>2025-01-26T13:43:02Z</time>
      </trkpt>
      <trkpt lat="45.866303388029337" lon="7.936558239161968">
        <ele>1265.8199999999999</ele>
        <time>2025-01-26T13:43:10Z</time>
      </trkpt>
      <trkpt lat="45.866207079961896" lon="7.93652756139636">
        <ele>1265.51</ele>
        <time>2025-01-26T13:43:19Z</time>
      </trkpt>
      <trkpt lat="45.866121165454388" lon="7.936516162008047">
        <ele>1264.8699999999999</ele>
        <time>2025-01-26T13:43:27Z</time>
      </trkpt>
      <trkpt lat="45.866037765517831" lon="7.936560669913888">
        <ele>1264.4000000000001</ele>
        <time>2025-01-26T13:43:35Z</time>
      </trkpt>
      <trkpt lat="45.865962663665414" lon="7.936642644926906">
        <ele>1264.4200000000001</ele>
        <time>2025-01-26T13:43:44Z</time>
      </trkpt>
      <trkpt lat="45.865883287042379" lon="7.936720345169306">
        <ele>1264.3399999999999</ele>
        <time>2025-01-26T13:43:53Z</time>
      </trkpt>
      <trkpt lat="45.865798629820347" lon="7.936797961592674">
        <ele>1264.23</ele>
        <time>2025-01-26T13:44:02Z</time>
      </trkpt>
      <trkpt lat="45.865714978426695" lon="7.936764098703861">
        <ele>1263.73</ele>
        <time>2025-01-26T13:44:11Z</time>
      </trkpt>
      <trkpt lat="45.865626214072108" lon="7.936708359047771">
        <ele>1263.29</ele>
        <time>2025-01-26T13:44:20Z</time>
      </trkpt>
      <trkpt lat="45.865542897954583" lon="7.936655636876822">
        <ele>1262.9000000000001</ele>
        <time>2025-01-26T13:44:29Z</time>
      </trkpt>
      <trkpt lat="45.865473160520196" lon="7.936645327135921">
        <ele>1262.03</ele>
        <time>2025-01-26T13:44:58Z</time>
      </trkpt>
      <trkpt lat="45.865486487746239" lon="7.936676843091846">
        <ele>1260.75</ele>
        <time>2025-01-26T13:46:00Z</time>
      </trkpt>
      <trkpt lat="45.865482045337558" lon="7.936620684340596">
        <ele>1261.1700000000001</ele>
        <time>2025-01-26T13:46:49Z</time>
      </trkpt>
    </trkseg>
  </trk>

</gpx>